Wetterdaten: Freitag, 11.07.2014
Datum Zeit Temp. Aussen +5cm Feuchte Auss Luftdruck Regen Sonnenschein Regendauer UV Solar Windben
11.07.2014 00:00 17,7 C 16,1 C 95 % 1012,2 hPa 0,2 l/m 0 min 2 min 0,0 UV-I 0 W/m 8,4 km/h (2 Bft)
11.07.2014 00:02 17,6 C 16,1 C 96 % 1012,1 hPa 0,0 l/m 0 min 2 min 0,0 UV-I 0 W/m 8,4 km/h (2 Bft)
11.07.2014 00:06 17,5 C 16,1 C 96 % 1012,3 hPa 0,0 l/m 0 min 2 min 0,0 UV-I 0 W/m 0,0 km/h (0 Bft)
11.07.2014 00:08 17,5 C 16,1 C 96 % 1012,3 hPa 0,0 l/m 0 min 2 min 0,0 UV-I 0 W/m 0,0 km/h (0 Bft)
11.07.2014 00:10 17,5 C 16,1 C 96 % 1012,3 hPa 0,0 l/m 0 min 0 min 0,0 UV-I 0 W/m 8,4 km/h (2 Bft)
11.07.2014 00:12 17,4 C 16,1 C 96 % 1012,3 hPa 0,0 l/m 0 min 2 min 0,0 UV-I 0 W/m 10,5 km/h (2 Bft)
11.07.2014 00:14 17,4 C 16,1 C 96 % 1012,2 hPa 0,0 l/m 0 min 2 min 0,0 UV-I 0 W/m 12,6 km/h (3 Bft)
11.07.2014 00:16 17,3 C 16,1 C 96 % 1012,2 hPa 0,0 l/m 0 min 2 min 0,0 UV-I 0 W/m 0,0 km/h (0 Bft)
11.07.2014 00:18 17,3 C 16,1 C 96 % 1012,2 hPa 0,0 l/m 0 min 2 min 0,0 UV-I 0 W/m 0,0 km/h (0 Bft)
11.07.2014 00:20 17,3 C 15,6 C 96 % 1012,2 hPa 0,0 l/m 0 min 0 min 0,0 UV-I 0 W/m 0,0 km/h (0 Bft)
11.07.2014 00:22 17,2 C 15,6 C 97 % 1012,1 hPa 0,0 l/m 0 min 0 min 0,0 UV-I 0 W/m 0,0 km/h (0 Bft)
11.07.2014 00:24 17,3 C 15,6 C 97 % 1012,1 hPa 0,0 l/m 0 min 0 min 0,0 UV-I 0 W/m 2,1 km/h (1 Bft)
11.07.2014 00:26 17,3 C 16,1 C 97 % 1012,1 hPa 0,0 l/m 0 min 0 min 0,0 UV-I 0 W/m 2,1 km/h (1 Bft)
11.07.2014 00:28 17,3 C 16,1 C 97 % 1012,1 hPa 0,0 l/m 0 min 0 min 0,0 UV-I 0 W/m 0,0 km/h (0 Bft)
11.07.2014 00:30 17,3 C 16,1 C 97 % 1012,1 hPa 0,0 l/m 0 min 0 min 0,0 UV-I 0 W/m 0,0 km/h (0 Bft)
11.07.2014 00:32 17,3 C 16,1 C 97 % 1012,1 hPa 0,0 l/m 0 min 0 min 0,0 UV-I 0 W/m 10,5 km/h (2 Bft)
11.07.2014 00:34 17,3 C 16,1 C 97 % 1012,3 hPa 0,0 l/m 0 min 0 min 0,0 UV-I 0 W/m 10,5 km/h (2 Bft)
11.07.2014 00:36 17,3 C 16,1 C 97 % 1012,4 hPa 0,0 l/m 0 min 0 min 0,0 UV-I 0 W/m 12,6 km/h (3 Bft)
11.07.2014 00:38 17,2 C 16,1 C 97 % 1012,4 hPa 0,0 l/m 0 min 0 min 0,0 UV-I 0 W/m 12,6 km/h (3 Bft)
11.07.2014 00:40 17,2 C 16,1 C 97 % 1012,3 hPa 0,0 l/m 0 min 0 min 0,0 UV-I 0 W/m 12,6 km/h (3 Bft)
11.07.2014 00:42 17,2 C 16,1 C 97 % 1012,4 hPa 0,0 l/m 0 min 0 min 0,0 UV-I 0 W/m 8,4 km/h (2 Bft)
11.07.2014 00:44 17,2 C 16,1 C 97 % 1012,3 hPa 0,0 l/m 0 min 0 min 0,0 UV-I 0 W/m 12,6 km/h (3 Bft)
11.07.2014 00:46 17,2 C 16,1 C 97 % 1012,4 hPa 0,0 l/m 0 min 0 min 0,0 UV-I 0 W/m 10,5 km/h (2 Bft)
11.07.2014 00:48 17,2 C 16,1 C 97 % 1012,4 hPa 0,0 l/m 0 min 0 min 0,0 UV-I 0 W/m 0,0 km/h (0 Bft)
11.07.2014 00:50 17,2 C 16,1 C 97 % 1012,4 hPa 0,0 l/m 0 min 0 min 0,0 UV-I 0 W/m 4,2 km/h (1 Bft)
11.07.2014 00:52 17,2 C 16,1 C 97 % 1012,5 hPa 0,0 l/m 0 min 0 min 0,0 UV-I 0 W/m 8,4 km/h (2 Bft)
11.07.2014 00:54 17,3 C 16,1 C 98 % 1012,5 hPa 0,0 l/m 0 min 0 min 0,0 UV-I 0 W/m 8,4 km/h (2 Bft)
11.07.2014 00:56 17,3 C 16,1 C 98 % 1012,6 hPa 0,0 l/m 0 min 0 min 0,0 UV-I 0 W/m 6,3 km/h (2 Bft)
11.07.2014 00:58 17,4 C 16,1 C 98 % 1012,7 hPa 0,0 l/m 0 min 0 min 0,0 UV-I 0 W/m 0,0 km/h (0 Bft)
11.07.2014 01:00 17,4 C 16,1 C 98 % 1012,7 hPa 0,0 l/m 0 min 0 min 0,0 UV-I 0 W/m 12,6 km/h (3 Bft)
11.07.2014 01:02 17,5 C 16,1 C 98 % 1012,7 hPa 0,0 l/m 0 min 0 min 0,0 UV-I 0 W/m 10,5 km/h (2 Bft)
11.07.2014 01:04 17,6 C 16,1 C 98 % 1012,7 hPa 0,0 l/m 0 min 0 min 0,0 UV-I 0 W/m 8,4 km/h (2 Bft)
11.07.2014 01:06 17,6 C 16,1 C 98 % 1012,7 hPa 0,0 l/m 0 min 0 min 0,0 UV-I 0 W/m 8,4 km/h (2 Bft)
11.07.2014 01:08 17,7 C 16,7 C 98 % 1012,8 hPa 0,0 l/m 0 min 0 min 0,0 UV-I 0 W/m 12,6 km/h (3 Bft)
11.07.2014 01:10 17,7 C 16,7 C 98 % 1012,8 hPa 0,0 l/m 0 min 0 min 0,0 UV-I 0 W/m 14,6 km/h (3 Bft)
11.07.2014 01:12 17,7 C 16,7 C 98 % 1012,8 hPa 0,0 l/m 0 min 0 min 0,0 UV-I 0 W/m 14,6 km/h (3 Bft)
11.07.2014 01:14 17,7 C 16,7 C 98 % 1012,8 hPa 0,0 l/m 0 min 0 min 0,0 UV-I 0 W/m 14,6 km/h (3 Bft)
11.07.2014 01:16 17,7 C 16,7 C 98 % 1012,8 hPa 0,0 l/m 0 min 0 min 0,0 UV-I 0 W/m 14,6 km/h (3 Bft)
11.07.2014 01:18 17,8 C 16,7 C 98 % 1012,7 hPa 0,0 l/m 0 min 0 min 0,0 UV-I 0 W/m 8,4 km/h (2 Bft)
11.07.2014 01:20 17,8 C 16,7 C 98 % 1012,6 hPa 0,0 l/m 0 min 0 min 0,0 UV-I 0 W/m 10,5 km/h (2 Bft)
11.07.2014 01:22 17,8 C 16,7 C 98 % 1012,5 hPa 0,0 l/m 0 min 0 min 0,0 UV-I 0 W/m 14,6 km/h (3 Bft)
11.07.2014 01:24 17,8 C 16,7 C 98 % 1012,4 hPa 0,0 l/m 0 min 0 min 0,0 UV-I 0 W/m 16,7 km/h (3 Bft)
11.07.2014 01:26 17,8 C 16,7 C 98 % 1012,5 hPa 0,0 l/m 0 min 0 min 0,0 UV-I 0 W/m 18,8 km/h (3 Bft)
11.07.2014 01:28 17,8 C 16,7 C 98 % 1012,4 hPa 0,0 l/m 0 min 0 min 0,0 UV-I 0 W/m 16,7 km/h (3 Bft)
11.07.2014 01:30 17,8 C 16,7 C 98 % 1012,6 hPa 0,0 l/m 0 min 0 min 0,0 UV-I 0 W/m 16,7 km/h (3 Bft)
11.07.2014 01:32 17,8 C 16,7 C 98 % 1012,8 hPa 0,0 l/m 0 min 0 min 0,0 UV-I 0 W/m 10,5 km/h (2 Bft)
11.07.2014 01:34 17,8 C 16,7 C 99 % 1012,8 hPa 0,0 l/m 0 min 0 min 0,0 UV-I 0 W/m 14,6 km/h (3 Bft)
11.07.2014 01:36 17,8 C 16,7 C 98 % 1012,8 hPa 0,0 l/m 0 min 0 min 0,0 UV-I 0 W/m 18,8 km/h (3 Bft)
11.07.2014 01:38 17,8 C 16,7 C 98 % 1012,8 hPa 0,0 l/m 0 min 0 min 0,0 UV-I 0 W/m 12,6 km/h (3 Bft)
11.07.2014 01:40 17,7 C 16,7 C 98 % 1012,7 hPa 0,0 l/m 0 min 0 min 0,0 UV-I 0 W/m 16,7 km/h (3 Bft)
11.07.2014 01:42 17,8 C 16,7 C 98 % 1012,6 hPa 0,0 l/m 0 min 0 min 0,0 UV-I 0 W/m 12,6 km/h (3 Bft)
11.07.2014 01:44 17,7 C 16,7 C 98 % 1012,6 hPa 0,0 l/m 0 min 0 min 0,0 UV-I 0 W/m 18,8 km/h (3 Bft)
11.07.2014 01:46 17,7 C 16,7 C 98 % 1012,5 hPa 0,0 l/m 0 min 0 min 0,0 UV-I 0 W/m 20,9 km/h (4 Bft)
11.07.2014 01:48 17,7 C 16,1 C 98 % 1012,5 hPa 0,0 l/m 0 min 0 min 0,0 UV-I 0 W/m 18,8 km/h (3 Bft)
11.07.2014 01:50 17,7 C 16,1 C 98 % 1012,5 hPa 0,0 l/m 0 min 0 min 0,0 UV-I 0 W/m 12,6 km/h (3 Bft)
11.07.2014 01:52 17,6 C 16,1 C 98 % 1012,4 hPa 0,0 l/m 0 min 0 min 0,0 UV-I 0 W/m 16,7 km/h (3 Bft)
11.07.2014 01:54 17,6 C 16,1 C 99 % 1012,4 hPa 0,0 l/m 0 min 0 min 0,0 UV-I 0 W/m 14,6 km/h (3 Bft)
11.07.2014 01:56 17,6 C 16,1 C 99 % 1012,4 hPa 0,0 l/m 0 min 0 min 0,0 UV-I 0 W/m 14,6 km/h (3 Bft)
11.07.2014 01:58 17,6 C 16,1 C 99 % 1012,5 hPa 0,0 l/m 0 min 0 min 0,0 UV-I 0 W/m 23,0 km/h (4 Bft)
11.07.2014 02:00 17,5 C 16,1 C 99 % 1012,5 hPa 0,0 l/m 0 min 0 min 0,0 UV-I 0 W/m 18,8 km/h (3 Bft)
11.07.2014 02:02 17,4 C 16,1 C 99 % 1012,5 hPa 0,0 l/m 0 min 0 min 0,0 UV-I 0 W/m 12,6 km/h (3 Bft)
11.07.2014 02:04 17,4 C 16,1 C 98 % 1012,5 hPa 0,0 l/m 0 min 0 min 0,0 UV-I 0 W/m 18,8 km/h (3 Bft)
11.07.2014 02:06 17,4 C 16,1 C 98 % 1012,5 hPa 0,0 l/m 0 min 0 min 0,0 UV-I 0 W/m 18,8 km/h (3 Bft)
11.07.2014 02:08 17,4 C 16,1 C 98 % 1012,6 hPa 0,0 l/m 0 min 0 min 0,0 UV-I 0 W/m 2,1 km/h (1 Bft)
11.07.2014 02:10 17,3 C 16,1 C 98 % 1012,6 hPa 0,0 l/m 0 min 0 min 0,0 UV-I 0 W/m 16,7 km/h (3 Bft)
11.07.2014 02:12 17,3 C 16,1 C 98 % 1012,6 hPa 0,0 l/m 0 min 0 min 0,0 UV-I 0 W/m 12,6 km/h (3 Bft)
11.07.2014 02:14 17,3 C 16,1 C 98 % 1012,7 hPa 0,0 l/m 0 min 0 min 0,0 UV-I 0 W/m 8,4 km/h (2 Bft)
11.07.2014 02:16 17,3 C 16,1 C 98 % 1012,7 hPa 0,0 l/m 0 min 0 min 0,0 UV-I 0 W/m 8,4 km/h (2 Bft)
11.07.2014 02:18 17,3 C 16,1 C 98 % 1012,7 hPa 0,0 l/m 0 min 0 min 0,0 UV-I 0 W/m 10,5 km/h (2 Bft)
11.07.2014 02:20 17,3 C 16,1 C 98 % 1012,8 hPa 0,0 l/m 0 min 0 min 0,0 UV-I 0 W/m 4,2 km/h (1 Bft)
11.07.2014 02:22 17,3 C 16,1 C 98 % 1012,8 hPa 0,0 l/m 0 min 0 min 0,0 UV-I 0 W/m 8,4 km/h (2 Bft)
11.07.2014 02:24 17,3 C 16,1 C 99 % 1012,9 hPa 0,0 l/m 0 min 0 min 0,0 UV-I 0 W/m 0,0 km/h (0 Bft)
11.07.2014 02:26 17,3 C 16,1 C 99 % 1012,9 hPa 0,0 l/m 0 min 0 min 0,0 UV-I 0 W/m 8,4 km/h (2 Bft)
11.07.2014 02:28 17,3 C 16,1 C 99 % 1012,9 hPa 0,0 l/m 0 min 2 min 0,0 UV-I 0 W/m 8,4 km/h (2 Bft)
11.07.2014 02:30 17,3 C 16,1 C 99 % 1012,9 hPa 0,0 l/m 0 min 0 min 0,0 UV-I 0 W/m 6,3 km/h (2 Bft)
11.07.2014 02:32 17,3 C 16,1 C 99 % 1013,0 hPa 0,0 l/m 0 min 0 min 0,0 UV-I 0 W/m 8,4 km/h (2 Bft)
11.07.2014 02:34 17,3 C 16,1 C 99 % 1012,8 hPa 0,0 l/m 0 min 0 min 0,0 UV-I 0 W/m 2,1 km/h (1 Bft)
11.07.2014 02:36 17,3 C 16,1 C 99 % 1012,7 hPa 0,0 l/m 0 min 0 min 0,0 UV-I 0 W/m 10,5 km/h (2 Bft)
11.07.2014 02:38 17,3 C 16,1 C 99 % 1012,6 hPa 0,0 l/m 0 min 0 min 0,0 UV-I 0 W/m 14,6 km/h (3 Bft)
11.07.2014 02:40 17,3 C 16,1 C 99 % 1012,6 hPa 0,0 l/m 0 min 0 min 0,0 UV-I 0 W/m 20,9 km/h (4 Bft)
11.07.2014 02:42 17,3 C 16,1 C 99 % 1012,6 hPa 0,0 l/m 0 min 0 min 0,0 UV-I 0 W/m 14,6 km/h (3 Bft)
11.07.2014 02:44 17,3 C 16,1 C 99 % 1012,5 hPa 0,0 l/m 0 min 2 min 0,0 UV-I 0 W/m 14,6 km/h (3 Bft)
11.07.2014 02:46 17,3 C 16,1 C 99 % 1012,5 hPa 0,0 l/m 0 min 2 min 0,0 UV-I 0 W/m 10,5 km/h (2 Bft)
11.07.2014 02:48 17,3 C 16,1 C 99 % 1012,4 hPa 0,0 l/m 0 min 2 min 0,0 UV-I 0 W/m 12,6 km/h (3 Bft)
11.07.2014 02:50 17,2 C 16,1 C 99 % 1012,4 hPa 0,0 l/m 0 min 2 min 0,0 UV-I 0 W/m 14,6 km/h (3 Bft)
11.07.2014 02:52 17,2 C 16,1 C 99 % 1012,4 hPa 0,0 l/m 0 min 0 min 0,0 UV-I 0 W/m 18,8 km/h (3 Bft)
11.07.2014 02:54 17,2 C 16,1 C 99 % 1012,4 hPa 0,0 l/m 0 min 0 min 0,0 UV-I 0 W/m 12,6 km/h (3 Bft)
11.07.2014 02:56 17,2 C 16,1 C 99 % 1012,3 hPa 0,0 l/m 0 min 0 min 0,0 UV-I 0 W/m 23,0 km/h (4 Bft)
11.07.2014 02:58 17,2 C 16,1 C 99 % 1012,3 hPa 0,0 l/m 0 min 0 min 0,0 UV-I 0 W/m 16,7 km/h (3 Bft)
11.07.2014 03:00 17,2 C 16,1 C 99 % 1012,3 hPa 0,0 l/m 0 min 0 min 0,0 UV-I 0 W/m 18,8 km/h (3 Bft)
11.07.2014 03:02 17,1 C 16,1 C 99 % 1012,3 hPa 0,0 l/m 0 min 0 min 0,0 UV-I 0 W/m 20,9 km/h (4 Bft)
11.07.2014 03:04 17,1 C 15,6 C 99 % 1012,2 hPa 0,0 l/m 0 min 0 min 0,0 UV-I 0 W/m 20,9 km/h (4 Bft)
11.07.2014 03:06 17,1 C 15,6 C 99 % 1012,1 hPa 0,0 l/m 0 min 0 min 0,0 UV-I 0 W/m 12,6 km/h (3 Bft)
11.07.2014 03:08 17,1 C 15,6 C 99 % 1012,0 hPa 0,0 l/m 0 min 0 min 0,0 UV-I 0 W/m 14,6 km/h (3 Bft)
11.07.2014 03:10 17,1 C 15,6 C 99 % 1012,0 hPa 0,0 l/m 0 min 0 min 0,0 UV-I 0 W/m 16,7 km/h (3 Bft)
11.07.2014 03:12 17,0 C 15,6 C 99 % 1012,0 hPa 0,0 l/m 0 min 0 min 0,0 UV-I 0 W/m 10,5 km/h (2 Bft)
11.07.2014 03:14 17,0 C 15,6 C 99 % 1012,1 hPa 0,0 l/m 0 min 0 min 0,0 UV-I 0 W/m 16,7 km/h (3 Bft)
11.07.2014 03:16 17,0 C 15,6 C 99 % 1012,1 hPa 0,0 l/m 0 min 0 min 0,0 UV-I 0 W/m 18,8 km/h (3 Bft)
11.07.2014 03:18 17,0 C 15,6 C 99 % 1012,2 hPa 0,0 l/m 0 min 0 min 0,0 UV-I 0 W/m 8,4 km/h (2 Bft)
11.07.2014 03:20 17,0 C 15,6 C 99 % 1012,2 hPa 0,0 l/m 0 min 0 min 0,0 UV-I 0 W/m 6,3 km/h (2 Bft)
11.07.2014 03:22 17,0 C 15,6 C 99 % 1012,3 hPa 0,0 l/m 0 min 0 min 0,0 UV-I 0 W/m 6,3 km/h (2 Bft)
11.07.2014 03:24 17,0 C 15,6 C 99 % 1012,4 hPa 0,0 l/m 0 min 0 min 0,0 UV-I 0 W/m 16,7 km/h (3 Bft)
11.07.2014 03:26 17,0 C 15,6 C 99 % 1012,5 hPa 0,0 l/m 0 min 0 min 0,0 UV-I 0 W/m 6,3 km/h (2 Bft)
11.07.2014 03:28 17,1 C 16,1 C 99 % 1012,5 hPa 0,0 l/m 0 min 0 min 0,0 UV-I 0 W/m 6,3 km/h (2 Bft)
11.07.2014 03:30 17,1 C 16,1 C 99 % 1012,5 hPa 0,0 l/m 0 min 0 min 0,0 UV-I 0 W/m 10,5 km/h (2 Bft)
11.07.2014 03:32 17,1 C 16,1 C 99 % 1012,5 hPa 0,0 l/m 0 min 0 min 0,0 UV-I 0 W/m 20,9 km/h (4 Bft)
11.07.2014 03:34 17,1 C 16,1 C 99 % 1012,5 hPa 0,0 l/m 0 min 0 min 0,0 UV-I 0 W/m 12,6 km/h (3 Bft)
11.07.2014 03:36 17,1 C 16,1 C 99 % 1012,5 hPa 0,0 l/m 0 min 0 min 0,0 UV-I 0 W/m 23,0 km/h (4 Bft)
11.07.2014 03:38 17,1 C 15,6 C 99 % 1012,4 hPa 0,0 l/m 0 min 0 min 0,0 UV-I 0 W/m 16,7 km/h (3 Bft)
11.07.2014 03:40 17,0 C 15,6 C 99 % 1012,4 hPa 0,0 l/m 0 min 0 min 0,0 UV-I 0 W/m 10,5 km/h (2 Bft)
11.07.2014 03:42 17,0 C 16,1 C 99 % 1012,5 hPa 0,0 l/m 0 min 0 min 0,0 UV-I 0 W/m 12,6 km/h (3 Bft)
11.07.2014 03:44 17,0 C 15,6 C 99 % 1012,4 hPa 0,0 l/m 0 min 0 min 0,0 UV-I 0 W/m 14,6 km/h (3 Bft)
11.07.2014 03:46 17,0 C 15,6 C 99 % 1012,5 hPa 0,0 l/m 0 min 0 min 0,0 UV-I 0 W/m 12,6 km/h (3 Bft)
11.07.2014 03:48 16,9 C 15,6 C 99 % 1012,5 hPa 0,0 l/m 0 min 0 min 0,0 UV-I 0 W/m 12,6 km/h (3 Bft)
11.07.2014 03:50 16,9 C 15,6 C 99 % 1012,4 hPa 0,0 l/m 0 min 0 min 0,0 UV-I 0 W/m 16,7 km/h (3 Bft)
11.07.2014 03:52 16,9 C 15,6 C 99 % 1012,3 hPa 0,0 l/m 0 min 0 min 0,0 UV-I 0 W/m 12,6 km/h (3 Bft)
11.07.2014 03:54 16,9 C 15,6 C 99 % 1012,3 hPa 0,0 l/m 0 min 0 min 0,0 UV-I 0 W/m 16,7 km/h (3 Bft)
11.07.2014 03:56 16,9 C 15,6 C 99 % 1012,3 hPa 0,0 l/m 0 min 0 min 0,0 UV-I 0 W/m 18,8 km/h (3 Bft)
11.07.2014 03:58 16,8 C 15,6 C 99 % 1012,3 hPa 0,0 l/m 0 min 0 min 0,0 UV-I 0 W/m 16,7 km/h (3 Bft)
11.07.2014 04:00 16,8 C 15,6 C 99 % 1012,2 hPa 0,0 l/m 0 min 0 min 0,0 UV-I 0 W/m 20,9 km/h (4 Bft)
11.07.2014 04:02 16,8 C 15,6 C 99 % 1012,3 hPa 0,0 l/m 0 min 0 min 0,0 UV-I 0 W/m 18,8 km/h (3 Bft)
11.07.2014 04:04 16,8 C 15,6 C 99 % 1012,2 hPa 0,0 l/m 0 min 0 min 0,0 UV-I 0 W/m 20,9 km/h (4 Bft)
11.07.2014 04:06 16,8 C 15,6 C 99 % 1012,3 hPa 0,0 l/m 0 min 0 min 0,0 UV-I 0 W/m 14,6 km/h (3 Bft)
11.07.2014 04:08 16,8 C 15,6 C 99 % 1012,3 hPa 0,0 l/m 0 min 0 min 0,0 UV-I 0 W/m 12,6 km/h (3 Bft)
11.07.2014 04:10 16,8 C 15,6 C 99 % 1012,4 hPa 0,0 l/m 0 min 0 min 0,0 UV-I 0 W/m 8,4 km/h (2 Bft)
11.07.2014 04:12 16,7 C 15,6 C 99 % 1012,5 hPa 0,0 l/m 0 min 0 min 0,0 UV-I 0 W/m 16,7 km/h (3 Bft)
11.07.2014 04:14 16,7 C 15,6 C 99 % 1012,4 hPa 0,0 l/m 0 min 0 min 0,0 UV-I 0 W/m 16,7 km/h (3 Bft)
11.07.2014 04:16 16,7 C 15,6 C 99 % 1012,4 hPa 0,0 l/m 0 min 0 min 0,0 UV-I 0 W/m 18,8 km/h (3 Bft)
11.07.2014 04:18 16,7 C 15,6 C 99 % 1012,4 hPa 0,0 l/m 0 min 0 min 0,0 UV-I 0 W/m 10,5 km/h (2 Bft)
11.07.2014 04:20 16,7 C 15,6 C 99 % 1012,5 hPa 0,0 l/m 0 min 0 min 0,0 UV-I 0 W/m 10,5 km/h (2 Bft)
11.07.2014 04:22 16,7 C 15,6 C 99 % 1012,4 hPa 0,0 l/m 0 min 0 min 0,0 UV-I 0 W/m 14,6 km/h (3 Bft)
11.07.2014 04:24 16,7 C 15,6 C 99 % 1012,5 hPa 0,0 l/m 0 min 0 min 0,0 UV-I 0 W/m 12,6 km/h (3 Bft)
11.07.2014 04:26 16,6 C 15,6 C 99 % 1012,5 hPa 0,0 l/m 0 min 0 min 0,0 UV-I 0 W/m 16,7 km/h (3 Bft)
11.07.2014 04:28 16,6 C 15,6 C 99 % 1012,5 hPa 0,0 l/m 0 min 0 min 0,0 UV-I 0 W/m 10,5 km/h (2 Bft)
11.07.2014 04:30 16,6 C 15,6 C 99 % 1012,5 hPa 0,0 l/m 0 min 0 min 0,0 UV-I 0 W/m 8,4 km/h (2 Bft)
11.07.2014 04:32 16,6 C 15,6 C 99 % 1012,5 hPa 0,0 l/m 0 min 0 min 0,0 UV-I 0 W/m 14,6 km/h (3 Bft)
11.07.2014 04:34 16,6 C 15,6 C 99 % 1012,4 hPa 0,0 l/m 0 min 0 min 0,0 UV-I 0 W/m 18,8 km/h (3 Bft)
11.07.2014 04:36 16,6 C 15,6 C 99 % 1012,5 hPa 0,0 l/m 0 min 0 min 0,0 UV-I 0 W/m 12,6 km/h (3 Bft)
11.07.2014 04:38 16,6 C 15,6 C 99 % 1012,5 hPa 0,0 l/m 0 min 0 min 0,0 UV-I 0 W/m 14,6 km/h (3 Bft)
11.07.2014 04:40 16,6 C 15,6 C 99 % 1012,6 hPa 0,0 l/m 0 min 0 min 0,0 UV-I 0 W/m 12,6 km/h (3 Bft)
11.07.2014 04:42 16,6 C 15,6 C 99 % 1012,7 hPa 0,0 l/m 0 min 0 min 0,0 UV-I 0 W/m 10,5 km/h (2 Bft)
11.07.2014 04:44 16,6 C 15,6 C 99 % 1012,7 hPa 0,0 l/m 0 min 0 min 0,0 UV-I 0 W/m 8,4 km/h (2 Bft)
11.07.2014 04:46 16,6 C 15,0 C 99 % 1012,6 hPa 0,0 l/m 0 min 0 min 0,0 UV-I 0 W/m 14,6 km/h (3 Bft)
11.07.2014 04:48 16,6 C 15,0 C 99 % 1012,6 hPa 0,0 l/m 0 min 0 min 0,0 UV-I 0 W/m 10,5 km/h (2 Bft)
11.07.2014 04:50 16,6 C 15,0 C 99 % 1012,6 hPa 0,0 l/m 0 min 0 min 0,0 UV-I 0 W/m 12,6 km/h (3 Bft)
11.07.2014 04:52 16,5 C 15,0 C 99 % 1012,6 hPa 0,0 l/m 0 min 0 min 0,0 UV-I 0 W/m 12,6 km/h (3 Bft)
11.07.2014 04:54 16,5 C 15,0 C 99 % 1012,6 hPa 0,0 l/m 0 min 0 min 0,0 UV-I 0 W/m 10,5 km/h (2 Bft)
11.07.2014 04:56 16,5 C 15,0 C 99 % 1012,6 hPa 0,0 l/m 0 min 0 min 0,0 UV-I 0 W/m 10,5 km/h (2 Bft)
11.07.2014 04:58 16,5 C 15,0 C 99 % 1012,6 hPa 0,0 l/m 0 min 0 min 0,0 UV-I 0 W/m 8,4 km/h (2 Bft)
11.07.2014 05:00 16,5 C 15,0 C 99 % 1012,6 hPa 0,0 l/m 0 min 0 min 0,0 UV-I 0 W/m 10,5 km/h (2 Bft)
11.07.2014 05:02 16,5 C 15,0 C 99 % 1012,6 hPa 0,0 l/m 0 min 0 min 0,0 UV-I 0 W/m 8,4 km/h (2 Bft)
11.07.2014 05:04 16,4 C 15,0 C 99 % 1012,6 hPa 0,0 l/m 0 min 0 min 0,0 UV-I 0 W/m 8,4 km/h (2 Bft)
11.07.2014 05:06 16,4 C 15,0 C 99 % 1012,6 hPa 0,0 l/m 0 min 0 min 0,0 UV-I 0 W/m 0,0 km/h (0 Bft)
11.07.2014 05:08 16,4 C 15,0 C 99 % 1012,6 hPa 0,0 l/m 0 min 0 min 0,0 UV-I 0 W/m 0,0 km/h (0 Bft)
11.07.2014 05:10 16,4 C 15,0 C 99 % 1012,7 hPa 0,0 l/m 0 min 0 min 0,0 UV-I 0 W/m 8,4 km/h (2 Bft)
11.07.2014 05:12 16,5 C 15,0 C 99 % 1012,8 hPa 0,0 l/m 0 min 0 min 0,0 UV-I 0 W/m 0,0 km/h (0 Bft)
11.07.2014 05:14 16,6 C 15,6 C 99 % 1012,9 hPa 0,0 l/m 0 min 0 min 0,0 UV-I 0 W/m 0,0 km/h (0 Bft)
11.07.2014 05:16 16,6 C 15,6 C 99 % 1012,9 hPa 0,0 l/m 0 min 0 min 0,0 UV-I 0 W/m 0,0 km/h (0 Bft)
11.07.2014 05:18 16,5 C 15,6 C 99 % 1012,8 hPa 0,0 l/m 0 min 0 min 0,0 UV-I 0 W/m 0,0 km/h (0 Bft)
11.07.2014 05:20 16,6 C 15,0 C 99 % 1012,8 hPa 0,0 l/m 0 min 0 min 0,0 UV-I 5 W/m 0,0 km/h (0 Bft)
11.07.2014 05:22 16,5 C 15,0 C 99 % 1012,8 hPa 0,0 l/m 0 min 0 min 0,0 UV-I 5 W/m 0,0 km/h (0 Bft)
11.07.2014 05:24 16,5 C 15,0 C 99 % 1012,9 hPa 0,0 l/m 0 min 0 min 0,0 UV-I 5 W/m 0,0 km/h (0 Bft)
11.07.2014 05:26 16,5 C 15,0 C 99 % 1012,8 hPa 0,0 l/m 0 min 0 min 0,0 UV-I 5 W/m 0,0 km/h (0 Bft)
11.07.2014 05:28 16,5 C 15,0 C 99 % 1012,8 hPa 0,0 l/m 0 min 0 min 0,0 UV-I 5 W/m 0,0 km/h (0 Bft)
11.07.2014 05:30 16,5 C 15,0 C 99 % 1012,8 hPa 0,0 l/m 0 min 0 min 0,0 UV-I 5 W/m 0,0 km/h (0 Bft)
11.07.2014 05:32 16,4 C 15,0 C 99 % 1012,8 hPa 0,0 l/m 0 min 0 min 0,0 UV-I 5 W/m 0,0 km/h (0 Bft)
11.07.2014 05:34 16,4 C 15,0 C 99 % 1012,9 hPa 0,0 l/m 0 min 0 min 0,0 UV-I 5 W/m 0,0 km/h (0 Bft)
11.07.2014 05:36 16,5 C 15,6 C 99 % 1012,8 hPa 0,0 l/m 0 min 0 min 0,0 UV-I 5 W/m 0,0 km/h (0 Bft)
11.07.2014 05:38 16,5 C 15,6 C 99 % 1012,8 hPa 0,0 l/m 0 min 0 min 0,0 UV-I 7 W/m 0,0 km/h (0 Bft)
11.07.2014 05:40 16,5 C 15,6 C 99 % 1012,7 hPa 0,0 l/m 0 min 0 min 0,0 UV-I 7 W/m 0,0 km/h (0 Bft)
11.07.2014 05:42 16,5 C 15,6 C 99 % 1012,8 hPa 0,0 l/m 0 min 0 min 0,0 UV-I 7 W/m 0,0 km/h (0 Bft)
11.07.2014 05:44 16,5 C 15,6 C 99 % 1012,8 hPa 0,0 l/m 0 min 0 min 0,0 UV-I 9 W/m 0,0 km/h (0 Bft)
11.07.2014 05:46 16,5 C 15,6 C 99 % 1012,7 hPa 0,0 l/m 0 min 0 min 0,0 UV-I 9 W/m 0,0 km/h (0 Bft)
11.07.2014 05:48 16,6 C 15,6 C 99 % 1012,7 hPa 0,0 l/m 0 min 0 min 0,0 UV-I 9 W/m 0,0 km/h (0 Bft)
11.07.2014 05:50 16,6 C 15,6 C 99 % 1012,8 hPa 0,0 l/m 0 min 0 min 0,0 UV-I 11 W/m 2,1 km/h (1 Bft)
11.07.2014 05:52 16,6 C 15,6 C 99 % 1012,9 hPa 0,0 l/m 0 min 0 min 0,0 UV-I 12 W/m 0,0 km/h (0 Bft)
11.07.2014 05:54 16,6 C 15,6 C 99 % 1012,9 hPa 0,0 l/m 0 min 0 min 0,0 UV-I 14 W/m 0,0 km/h (0 Bft)
11.07.2014 05:56 16,6 C 15,6 C 99 % 1012,9 hPa 0,0 l/m 0 min 0 min 0,0 UV-I 14 W/m 0,0 km/h (0 Bft)
11.07.2014 05:58 16,6 C 15,6 C 99 % 1013,0 hPa 0,0 l/m 0 min 0 min 0,0 UV-I 12 W/m 0,0 km/h (0 Bft)
11.07.2014 06:00 16,6 C 15,6 C 99 % 1013,0 hPa 0,0 l/m 0 min 0 min 0,0 UV-I 16 W/m 0,0 km/h (0 Bft)
11.07.2014 06:02 16,6 C 15,6 C 99 % 1013,0 hPa 0,0 l/m 0 min 0 min 0,0 UV-I 19 W/m 0,0 km/h (0 Bft)
11.07.2014 06:06 16,5 C 15,6 C 99 % 1013,1 hPa 0,0 l/m 0 min 0 min 0,0 UV-I 21 W/m 0,0 km/h (0 Bft)
11.07.2014 06:08 16,5 C 15,6 C 99 % 1013,0 hPa 0,0 l/m 0 min 0 min 0,0 UV-I 19 W/m 0,0 km/h (0 Bft)
11.07.2014 06:10 16,5 C 15,0 C 99 % 1012,9 hPa 0,0 l/m 0 min 0 min 0,0 UV-I 21 W/m 0,0 km/h (0 Bft)
11.07.2014 06:12 16,4 C 15,0 C 99 % 1012,9 hPa 0,0 l/m 0 min 0 min 0,0 UV-I 21 W/m 0,0 km/h (0 Bft)
11.07.2014 06:14 16,4 C 15,0 C 99 % 1012,9 hPa 0,0 l/m 0 min 0 min 0,0 UV-I 23 W/m 0,0 km/h (0 Bft)
11.07.2014 06:16 16,4 C 15,0 C 99 % 1013,0 hPa 0,0 l/m 0 min 0 min 0,0 UV-I 25 W/m 0,0 km/h (0 Bft)
11.07.2014 06:18 16,4 C 15,0 C 99 % 1012,9 hPa 0,0 l/m 0 min 0 min 0,0 UV-I 26 W/m 0,0 km/h (0 Bft)
11.07.2014 06:20 16,4 C 15,0 C 99 % 1012,9 hPa 0,0 l/m 0 min 0 min 0,0 UV-I 28 W/m 0,0 km/h (0 Bft)
11.07.2014 06:22 16,4 C 15,0 C 99 % 1012,9 hPa 0,0 l/m 0 min 0 min 0,0 UV-I 30 W/m 0,0 km/h (0 Bft)
11.07.2014 06:24 16,4 C 15,0 C 99 % 1013,1 hPa 0,0 l/m 0 min 0 min 0,0 UV-I 33 W/m 0,0 km/h (0 Bft)
11.07.2014 06:26 16,4 C 15,0 C 99 % 1013,1 hPa 0,0 l/m 0 min 0 min 0,0 UV-I 37 W/m 0,0 km/h (0 Bft)
11.07.2014 06:28 16,4 C 15,0 C 99 % 1013,1 hPa 0,0 l/m 0 min 0 min 0,0 UV-I 40 W/m 0,0 km/h (0 Bft)
11.07.2014 06:30 16,4 C 15,0 C 99 % 1013,1 hPa 0,0 l/m 0 min 0 min 0,0 UV-I 39 W/m 0,0 km/h (0 Bft)
11.07.2014 06:32 16,4 C 15,0 C 99 % 1013,1 hPa 0,0 l/m 0 min 0 min 0,0 UV-I 44 W/m 0,0 km/h (0 Bft)
11.07.2014 06:34 16,4 C 15,0 C 99 % 1013,0 hPa 0,0 l/m 0 min 0 min 0,0 UV-I 49 W/m 6,3 km/h (2 Bft)
11.07.2014 06:36 16,4 C 15,6 C 99 % 1013,0 hPa 0,0 l/m 0 min 0 min 0,0 UV-I 51 W/m 6,3 km/h (2 Bft)
11.07.2014 06:38 16,4 C 15,6 C 99 % 1013,0 hPa 0,0 l/m 0 min 0 min 0,0 UV-I 56 W/m 6,3 km/h (2 Bft)
11.07.2014 06:40 16,4 C 15,6 C 99 % 1013,0 hPa 0,0 l/m 0 min 0 min 0,0 UV-I 58 W/m 6,3 km/h (2 Bft)
11.07.2014 06:42 16,4 C 15,6 C 99 % 1013,0 hPa 0,0 l/m 0 min 0 min 0,0 UV-I 65 W/m 0,0 km/h (0 Bft)
11.07.2014 06:44 16,4 C 15,6 C 99 % 1013,0 hPa 0,0 l/m 0 min 0 min 0,0 UV-I 70 W/m 0,0 km/h (0 Bft)
11.07.2014 06:46 16,5 C 15,6 C 99 % 1013,0 hPa 0,0 l/m 0 min 0 min 0,0 UV-I 70 W/m 0,0 km/h (0 Bft)
11.07.2014 06:48 16,4 C 15,6 C 99 % 1013,0 hPa 0,0 l/m 0 min 0 min 0,0 UV-I 70 W/m 2,1 km/h (1 Bft)
11.07.2014 06:50 16,4 C 15,6 C 99 % 1013,0 hPa 0,0 l/m 2 min 0 min 0,0 UV-I 83 W/m 0,0 km/h (0 Bft)
11.07.2014 06:52 16,5 C 15,6 C 99 % 1013,0 hPa 0,0 l/m 2 min 0 min 0,0 UV-I 90 W/m 0,0 km/h (0 Bft)
11.07.2014 06:54 16,5 C 15,6 C 99 % 1013,0 hPa 0,0 l/m 0 min 0 min 0,0 UV-I 79 W/m 0,0 km/h (0 Bft)
11.07.2014 06:56 16,5 C 15,6 C 99 % 1013,1 hPa 0,0 l/m 0 min 0 min 0,0 UV-I 74 W/m 0,0 km/h (0 Bft)
11.07.2014 06:58 16,5 C 15,6 C 99 % 1013,1 hPa 0,0 l/m 0 min 0 min 0,0 UV-I 69 W/m 0,0 km/h (0 Bft)
11.07.2014 07:00 16,5 C 15,6 C 99 % 1013,1 hPa 0,0 l/m 0 min 0 min 0,0 UV-I 58 W/m 0,0 km/h (0 Bft)
11.07.2014 07:02 16,5 C 15,6 C 99 % 1013,1 hPa 0,0 l/m 0 min 0 min 0,0 UV-I 56 W/m 0,0 km/h (0 Bft)
11.07.2014 07:04 16,6 C 15,6 C 99 % 1013,1 hPa 0,0 l/m 0 min 0 min 0,0 UV-I 56 W/m 2,1 km/h (1 Bft)
11.07.2014 07:06 16,6 C 15,6 C 99 % 1013,0 hPa 0,0 l/m 0 min 0 min 0,0 UV-I 54 W/m 6,3 km/h (2 Bft)
11.07.2014 07:08 16,7 C 15,6 C 99 % 1013,0 hPa 0,0 l/m 0 min 0 min 0,0 UV-I 54 W/m 0,0 km/h (0 Bft)
11.07.2014 07:10 16,8 C 16,1 C 99 % 1013,0 hPa 0,0 l/m 0 min 0 min 0,0 UV-I 46 W/m 8,4 km/h (2 Bft)
11.07.2014 07:12 16,8 C 16,1 C 99 % 1013,0 hPa 0,0 l/m 0 min 0 min 0,0 UV-I 46 W/m 6,3 km/h (2 Bft)
11.07.2014 07:14 16,8 C 16,1 C 99 % 1013,0 hPa 0,0 l/m 0 min 0 min 0,0 UV-I 42 W/m 2,1 km/h (1 Bft)
11.07.2014 07:16 16,8 C 16,1 C 99 % 1013,0 hPa 0,0 l/m 0 min 0 min 0,0 UV-I 40 W/m 0,0 km/h (0 Bft)
11.07.2014 07:18 16,8 C 16,1 C 99 % 1013,1 hPa 0,0 l/m 0 min 0 min 0,0 UV-I 42 W/m 0,0 km/h (0 Bft)
11.07.2014 07:20 16,8 C 16,1 C 99 % 1013,1 hPa 0,0 l/m 0 min 0 min 0,0 UV-I 37 W/m 0,0 km/h (0 Bft)
11.07.2014 07:22 16,7 C 16,1 C 99 % 1013,0 hPa 0,0 l/m 0 min 0 min 0,0 UV-I 35 W/m 8,4 km/h (2 Bft)
11.07.2014 07:24 16,8 C 16,1 C 99 % 1013,1 hPa 0,0 l/m 0 min 0 min 0,0 UV-I 39 W/m 6,3 km/h (2 Bft)
11.07.2014 07:26 16,8 C 16,1 C 99 % 1013,0 hPa 0,0 l/m 0 min 0 min 0,0 UV-I 42 W/m 8,4 km/h (2 Bft)
11.07.2014 07:28 16,8 C 16,1 C 99 % 1013,0 hPa 0,0 l/m 0 min 0 min 0,0 UV-I 46 W/m 12,6 km/h (3 Bft)
11.07.2014 07:30 16,7 C 16,1 C 99 % 1013,1 hPa 0,0 l/m 0 min 0 min 0,0 UV-I 42 W/m 12,6 km/h (3 Bft)
11.07.2014 07:32 16,7 C 16,1 C 99 % 1013,1 hPa 0,0 l/m 0 min 0 min 0,0 UV-I 40 W/m 10,5 km/h (2 Bft)
11.07.2014 07:34 16,7 C 16,1 C 99 % 1013,1 hPa 0,0 l/m 0 min 0 min 0,0 UV-I 42 W/m 4,2 km/h (1 Bft)
11.07.2014 07:36 16,7 C 16,1 C 99 % 1013,0 hPa 0,0 l/m 0 min 0 min 0,0 UV-I 51 W/m 2,1 km/h (1 Bft)
11.07.2014 07:38 16,7 C 16,1 C 99 % 1013,1 hPa 0,0 l/m 0 min 0 min 0,0 UV-I 47 W/m 8,4 km/h (2 Bft)
11.07.2014 07:40 16,8 C 16,1 C 99 % 1013,1 hPa 0,0 l/m 0 min 0 min 0,0 UV-I 53 W/m 10,5 km/h (2 Bft)
11.07.2014 07:42 16,8 C 16,1 C 99 % 1013,0 hPa 0,0 l/m 0 min 0 min 0,0 UV-I 60 W/m 0,0 km/h (0 Bft)
11.07.2014 07:44 16,8 C 16,1 C 99 % 1013,1 hPa 0,0 l/m 0 min 0 min 0,0 UV-I 53 W/m 8,4 km/h (2 Bft)
11.07.2014 07:46 16,8 C 16,1 C 99 % 1013,1 hPa 0,0 l/m 0 min 0 min 0,0 UV-I 56 W/m 2,1 km/h (1 Bft)
11.07.2014 07:48 16,8 C 16,1 C 99 % 1013,3 hPa 0,0 l/m 0 min 0 min 0,0 UV-I 54 W/m 8,4 km/h (2 Bft)
11.07.2014 07:50 16,8 C 16,1 C 99 % 1013,3 hPa 0,0 l/m 0 min 0 min 0,0 UV-I 53 W/m 0,0 km/h (0 Bft)
11.07.2014 07:52 16,8 C 16,1 C 99 % 1013,4 hPa 0,0 l/m 0 min 0 min 0,0 UV-I 49 W/m 0,0 km/h (0 Bft)
11.07.2014 07:54 16,8 C 16,1 C 99 % 1013,4 hPa 0,0 l/m 0 min 0 min 0,0 UV-I 47 W/m 0,0 km/h (0 Bft)
11.07.2014 07:56 16,8 C 16,1 C 99 % 1013,4 hPa 0,0 l/m 0 min 0 min 0,0 UV-I 49 W/m 0,0 km/h (0 Bft)
11.07.2014 07:58 16,8 C 16,1 C 99 % 1013,4 hPa 0,0 l/m 0 min 0 min 0,0 UV-I 60 W/m 0,0 km/h (0 Bft)
11.07.2014 08:00 16,9 C 16,1 C 99 % 1013,4 hPa 0,0 l/m 0 min 0 min 0,0 UV-I 77 W/m 2,1 km/h (1 Bft)
11.07.2014 08:02 16,9 C 16,1 C 99 % 1013,4 hPa 0,0 l/m 0 min 0 min 0,0 UV-I 84 W/m 8,4 km/h (2 Bft)
11.07.2014 08:04 16,9 C 16,1 C 99 % 1013,4 hPa 0,0 l/m 0 min 0 min 0,0 UV-I 83 W/m 10,5 km/h (2 Bft)
11.07.2014 08:06 16,9 C 16,7 C 99 % 1013,4 hPa 0,0 l/m 0 min 0 min 0,0 UV-I 70 W/m 10,5 km/h (2 Bft)
11.07.2014 08:08 16,9 C 16,1 C 99 % 1013,5 hPa 0,0 l/m 0 min 0 min 0,0 UV-I 77 W/m 6,3 km/h (2 Bft)
11.07.2014 08:10 16,9 C 16,7 C 99 % 1013,5 hPa 0,0 l/m 0 min 0 min 0,0 UV-I 88 W/m 8,4 km/h (2 Bft)
11.07.2014 08:12 16,9 C 16,7 C 99 % 1013,5 hPa 0,0 l/m 0 min 0 min 0,0 UV-I 100 W/m 4,2 km/h (1 Bft)
11.07.2014 08:14 16,9 C 16,7 C 99 % 1013,5 hPa 0,0 l/m 0 min 0 min 0,0 UV-I 113 W/m 8,4 km/h (2 Bft)
11.07.2014 08:16 17,0 C 16,7 C 99 % 1013,6 hPa 0,0 l/m 0 min 0 min 0,0 UV-I 107 W/m 4,2 km/h (1 Bft)
11.07.2014 08:18 17,0 C 16,7 C 99 % 1013,6 hPa 0,0 l/m 0 min 0 min 0,0 UV-I 116 W/m 8,4 km/h (2 Bft)
11.07.2014 08:20 17,1 C 16,7 C 99 % 1013,6 hPa 0,0 l/m 0 min 0 min 0,0 UV-I 141 W/m 6,3 km/h (2 Bft)
11.07.2014 08:22 17,3 C 16,7 C 99 % 1013,7 hPa 0,0 l/m 0 min 0 min 0,0 UV-I 109 W/m 2,1 km/h (1 Bft)
11.07.2014 08:24 17,3 C 16,7 C 99 % 1013,7 hPa 0,0 l/m 0 min 0 min 0,0 UV-I 98 W/m 8,4 km/h (2 Bft)
11.07.2014 08:26 17,3 C 16,7 C 99 % 1013,7 hPa 0,0 l/m 0 min 0 min 0,0 UV-I 74 W/m 12,6 km/h (3 Bft)
11.07.2014 08:28 17,2 C 16,7 C 99 % 1013,7 hPa 0,0 l/m 0 min 0 min 0,0 UV-I 69 W/m 12,6 km/h (3 Bft)
11.07.2014 08:30 17,2 C 16,7 C 99 % 1013,7 hPa 0,0 l/m 0 min 0 min 0,0 UV-I 67 W/m 10,5 km/h (2 Bft)
11.07.2014 08:32 17,2 C 16,7 C 98 % 1013,7 hPa 0,0 l/m 0 min 0 min 0,0 UV-I 70 W/m 6,3 km/h (2 Bft)
11.07.2014 08:34 17,2 C 16,7 C 98 % 1013,7 hPa 0,0 l/m 0 min 0 min 0,0 UV-I 74 W/m 0,0 km/h (0 Bft)
11.07.2014 08:36 17,1 C 16,7 C 98 % 1013,8 hPa 0,0 l/m 0 min 0 min 0,0 UV-I 81 W/m 2,1 km/h (1 Bft)
11.07.2014 08:38 17,1 C 16,7 C 98 % 1013,8 hPa 0,0 l/m 0 min 0 min 0,0 UV-I 90 W/m 10,5 km/h (2 Bft)
11.07.2014 08:40 17,1 C 16,7 C 98 % 1013,8 hPa 0,0 l/m 0 min 0 min 0,0 UV-I 113 W/m 2,1 km/h (1 Bft)
11.07.2014 08:42 17,1 C 16,7 C 98 % 1013,9 hPa 0,0 l/m 0 min 0 min 0,0 UV-I 116 W/m 0,0 km/h (0 Bft)
11.07.2014 08:44 17,2 C 16,7 C 98 % 1013,9 hPa 0,0 l/m 0 min 0 min 0,0 UV-I 146 W/m 6,3 km/h (2 Bft)
11.07.2014 08:46 17,2 C 16,7 C 98 % 1013,9 hPa 0,0 l/m 0 min 0 min 0,0 UV-I 130 W/m 8,4 km/h (2 Bft)
11.07.2014 08:48 17,3 C 16,7 C 98 % 1014,0 hPa 0,0 l/m 0 min 0 min 0,0 UV-I 137 W/m 8,4 km/h (2 Bft)
11.07.2014 08:50 17,3 C 16,7 C 97 % 1014,0 hPa 0,0 l/m 0 min 0 min 0,0 UV-I 128 W/m 8,4 km/h (2 Bft)
11.07.2014 08:52 17,3 C 16,7 C 97 % 1013,9 hPa 0,0 l/m 0 min 0 min 0,0 UV-I 107 W/m 2,1 km/h (1 Bft)
11.07.2014 08:54 17,4 C 16,7 C 97 % 1014,0 hPa 0,0 l/m 0 min 0 min 0,0 UV-I 95 W/m 6,3 km/h (2 Bft)
11.07.2014 08:56 17,4 C 16,7 C 97 % 1014,0 hPa 0,0 l/m 0 min 0 min 0,0 UV-I 91 W/m 2,1 km/h (1 Bft)
11.07.2014 08:58 17,4 C 16,7 C 97 % 1014,0 hPa 0,0 l/m 0 min 0 min 0,0 UV-I 93 W/m 6,3 km/h (2 Bft)
11.07.2014 09:00 17,4 C 16,7 C 97 % 1014,0 hPa 0,0 l/m 0 min 0 min 0,0 UV-I 95 W/m 4,2 km/h (1 Bft)
11.07.2014 09:02 17,4 C 16,7 C 97 % 1014,0 hPa 0,0 l/m 0 min 0 min 0,0 UV-I 83 W/m 6,3 km/h (2 Bft)
11.07.2014 09:04 17,4 C 16,7 C 97 % 1014,0 hPa 0,0 l/m 0 min 0 min 0,0 UV-I 93 W/m 2,1 km/h (1 Bft)
11.07.2014 09:06 17,6 C 16,7 C 97 % 1014,1 hPa 0,0 l/m 0 min 0 min 0,0 UV-I 105 W/m 0,0 km/h (0 Bft)
11.07.2014 09:08 17,6 C 16,7 C 97 % 1014,1 hPa 0,0 l/m 0 min 0 min 0,0 UV-I 107 W/m 8,4 km/h (2 Bft)
11.07.2014 09:10 17,6 C 16,7 C 97 % 1014,1 hPa 0,0 l/m 0 min 0 min 0,0 UV-I 97 W/m 0,0 km/h (0 Bft)
11.07.2014 09:12 17,6 C 16,7 C 97 % 1014,2 hPa 0,0 l/m 0 min 0 min 0,0 UV-I 116 W/m 8,4 km/h (2 Bft)
11.07.2014 09:14 17,6 C 16,7 C 96 % 1014,2 hPa 0,0 l/m 0 min 0 min 0,0 UV-I 125 W/m 12,6 km/h (3 Bft)
11.07.2014 09:16 17,6 C 17,2 C 96 % 1014,1 hPa 0,0 l/m 0 min 0 min 0,0 UV-I 134 W/m 8,4 km/h (2 Bft)
11.07.2014 09:18 17,6 C 17,2 C 96 % 1014,1 hPa 0,0 l/m 0 min 0 min 0,0 UV-I 118 W/m 4,2 km/h (1 Bft)
11.07.2014 09:20 17,6 C 17,2 C 96 % 1014,1 hPa 0,0 l/m 0 min 0 min 0,0 UV-I 109 W/m 8,4 km/h (2 Bft)
11.07.2014 09:22 17,6 C 17,2 C 96 % 1014,1 hPa 0,0 l/m 0 min 0 min 0,0 UV-I 141 W/m 8,4 km/h (2 Bft)
11.07.2014 09:24 17,6 C 17,2 C 96 % 1014,2 hPa 0,0 l/m 0 min 0 min 0,0 UV-I 162 W/m 0,0 km/h (0 Bft)
11.07.2014 09:26 17,7 C 17,2 C 96 % 1014,1 hPa 0,0 l/m 0 min 0 min 0,0 UV-I 163 W/m 2,1 km/h (1 Bft)
11.07.2014 09:28 17,7 C 17,2 C 96 % 1014,1 hPa 0,0 l/m 0 min 0 min 0,0 UV-I 199 W/m 0,0 km/h (0 Bft)
11.07.2014 09:30 17,9 C 17,8 C 96 % 1014,0 hPa 0,0 l/m 0 min 0 min 0,0 UV-I 172 W/m 0,0 km/h (0 Bft)
11.07.2014 09:32 18,1 C 17,8 C 96 % 1014,1 hPa 0,0 l/m 0 min 0 min 0,0 UV-I 183 W/m 0,0 km/h (0 Bft)
11.07.2014 09:34 18,1 C 17,8 C 96 % 1014,1 hPa 0,0 l/m 0 min 0 min 0,5 UV-I 176 W/m 4,2 km/h (1 Bft)
11.07.2014 09:36 18,1 C 17,8 C 96 % 1014,0 hPa 0,0 l/m 0 min 0 min 0,7 UV-I 213 W/m 6,3 km/h (2 Bft)
11.07.2014 09:38 18,2 C 17,8 C 95 % 1014,0 hPa 0,0 l/m 0 min 0 min 0,8 UV-I 257 W/m 8,4 km/h (2 Bft)
11.07.2014 09:40 18,2 C 17,8 C 95 % 1014,0 hPa 0,0 l/m 2 min 0 min 0,9 UV-I 294 W/m 12,6 km/h (3 Bft)
11.07.2014 09:42 18,2 C 18,3 C 94 % 1014,0 hPa 0,0 l/m 2 min 0 min 0,9 UV-I 283 W/m 8,4 km/h (2 Bft)
11.07.2014 09:44 18,3 C 18,3 C 94 % 1014,1 hPa 0,0 l/m 0 min 0 min 0,9 UV-I 248 W/m 10,5 km/h (2 Bft)
11.07.2014 09:46 18,5 C 18,3 C 94 % 1014,0 hPa 0,0 l/m 2 min 0 min 1,5 UV-I 399 W/m 0,0 km/h (0 Bft)
11.07.2014 09:48 18,8 C 18,9 C 95 % 1014,0 hPa 0,0 l/m 2 min 0 min 1,7 UV-I 663 W/m 2,1 km/h (1 Bft)
11.07.2014 09:50 18,9 C 18,9 C 94 % 1014,0 hPa 0,0 l/m 2 min 0 min 1,3 UV-I 677 W/m 6,3 km/h (2 Bft)
11.07.2014 09:52 19,0 C 18,9 C 93 % 1014,0 hPa 0,0 l/m 0 min 0 min 0,9 UV-I 278 W/m 4,2 km/h (1 Bft)
11.07.2014 09:54 19,1 C 18,9 C 93 % 1014,0 hPa 0,0 l/m 0 min 0 min 1,0 UV-I 269 W/m 10,5 km/h (2 Bft)
11.07.2014 09:56 18,9 C 18,9 C 92 % 1014,0 hPa 0,0 l/m 2 min 0 min 1,4 UV-I 316 W/m 10,5 km/h (2 Bft)
11.07.2014 09:58 19,0 C 18,9 C 92 % 1014,1 hPa 0,0 l/m 2 min 0 min 1,2 UV-I 418 W/m 8,4 km/h (2 Bft)
11.07.2014 10:00 19,0 C 18,9 C 92 % 1014,1 hPa 0,0 l/m 2 min 0 min 1,3 UV-I 329 W/m 6,3 km/h (2 Bft)
11.07.2014 10:02 18,9 C 18,9 C 91 % 1014,0 hPa 0,0 l/m 2 min 0 min 1,4 UV-I 329 W/m 16,7 km/h (3 Bft)
11.07.2014 10:04 19,1 C 19,4 C 92 % 1014,1 hPa 0,0 l/m 2 min 0 min 1,2 UV-I 628 W/m 10,5 km/h (2 Bft)
11.07.2014 10:06 19,1 C 19,4 C 91 % 1014,0 hPa 0,0 l/m 2 min 0 min 1,1 UV-I 308 W/m 12,6 km/h (3 Bft)
11.07.2014 10:08 19,1 C 19,4 C 91 % 1014,0 hPa 0,0 l/m 0 min 0 min 1,1 UV-I 285 W/m 8,4 km/h (2 Bft)
11.07.2014 10:10 19,0 C 19,4 C 90 % 1014,0 hPa 0,0 l/m 2 min 0 min 1,3 UV-I 322 W/m 14,6 km/h (3 Bft)
11.07.2014 10:12 19,0 C 19,4 C 91 % 1014,0 hPa 0,0 l/m 2 min 0 min 1,5 UV-I 336 W/m 8,4 km/h (2 Bft)
11.07.2014 10:14 19,1 C 19,4 C 90 % 1013,9 hPa 0,0 l/m 2 min 0 min 1,6 UV-I 330 W/m 10,5 km/h (2 Bft)
11.07.2014 10:16 19,2 C 19,4 C 91 % 1014,0 hPa 0,0 l/m 2 min 0 min 2,1 UV-I 334 W/m 12,6 km/h (3 Bft)
11.07.2014 10:18 19,2 C 19,4 C 91 % 1014,1 hPa 0,0 l/m 2 min 0 min 2,1 UV-I 376 W/m 6,3 km/h (2 Bft)
11.07.2014 10:20 19,2 C 19,4 C 90 % 1014,1 hPa 0,0 l/m 2 min 0 min 2,2 UV-I 478 W/m 14,6 km/h (3 Bft)
11.07.2014 10:22 19,2 C 19,4 C 90 % 1014,1 hPa 0,0 l/m 2 min 0 min 2,4 UV-I 624 W/m 10,5 km/h (2 Bft)
11.07.2014 10:24 19,3 C 20,0 C 89 % 1014,1 hPa 0,0 l/m 2 min 0 min 2,4 UV-I 664 W/m 12,6 km/h (3 Bft)
11.07.2014 10:26 19,6 C 20,6 C 90 % 1014,1 hPa 0,0 l/m 2 min 0 min 1,9 UV-I 406 W/m 2,1 km/h (1 Bft)
11.07.2014 10:28 19,8 C 20,6 C 90 % 1014,1 hPa 0,0 l/m 2 min 0 min 2,0 UV-I 383 W/m 6,3 km/h (2 Bft)
11.07.2014 10:30 20,0 C 20,6 C 90 % 1014,1 hPa 0,0 l/m 2 min 0 min 2,1 UV-I 383 W/m 8,4 km/h (2 Bft)
11.07.2014 10:32 20,1 C 20,6 C 88 % 1014,1 hPa 0,0 l/m 2 min 0 min 1,9 UV-I 374 W/m 10,5 km/h (2 Bft)
11.07.2014 10:34 20,1 C 20,6 C 87 % 1014,1 hPa 0,0 l/m 2 min 0 min 2,5 UV-I 566 W/m 12,6 km/h (3 Bft)
11.07.2014 10:36 20,1 C 20,6 C 87 % 1014,2 hPa 0,0 l/m 2 min 0 min 1,4 UV-I 566 W/m 14,6 km/h (3 Bft)
11.07.2014 10:38 20,2 C 20,0 C 87 % 1014,2 hPa 0,0 l/m 0 min 0 min 1,4 UV-I 237 W/m 8,4 km/h (2 Bft)
11.07.2014 10:40 20,1 C 20,0 C 87 % 1014,2 hPa 0,0 l/m 0 min 0 min 1,5 UV-I 232 W/m 0,0 km/h (0 Bft)
11.07.2014 10:42 19,9 C 19,4 C 87 % 1014,2 hPa 0,0 l/m 0 min 0 min 1,7 UV-I 258 W/m 6,3 km/h (2 Bft)
11.07.2014 10:44 19,8 C 19,4 C 87 % 1014,2 hPa 0,0 l/m 2 min 0 min 2,1 UV-I 348 W/m 8,4 km/h (2 Bft)
11.07.2014 10:46 19,7 C 19,4 C 86 % 1014,2 hPa 0,0 l/m 2 min 0 min 3,1 UV-I 401 W/m 8,4 km/h (2 Bft)
11.07.2014 10:48 19,7 C 20,0 C 87 % 1014,2 hPa 0,0 l/m 2 min 0 min 2,1 UV-I 570 W/m 0,0 km/h (0 Bft)
11.07.2014 10:50 19,9 C 20,0 C 88 % 1014,2 hPa 0,0 l/m 0 min 0 min 1,4 UV-I 288 W/m 12,6 km/h (3 Bft)
11.07.2014 10:52 19,9 C 20,0 C 87 % 1014,3 hPa 0,0 l/m 0 min 0 min 1,0 UV-I 258 W/m 10,5 km/h (2 Bft)
11.07.2014 10:54 19,8 C 20,0 C 87 % 1014,3 hPa 0,0 l/m 0 min 0 min 0,9 UV-I 229 W/m 10,5 km/h (2 Bft)
11.07.2014 10:56 19,7 C 19,4 C 87 % 1014,2 hPa 0,0 l/m 0 min 0 min 1,0 UV-I 225 W/m 10,5 km/h (2 Bft)
11.07.2014 10:58 19,8 C 19,4 C 88 % 1014,2 hPa 0,0 l/m 0 min 0 min 1,1 UV-I 227 W/m 12,6 km/h (3 Bft)
11.07.2014 11:00 19,8 C 19,4 C 88 % 1014,2 hPa 0,0 l/m 0 min 0 min 1,2 UV-I 221 W/m 0,0 km/h (0 Bft)
11.07.2014 11:02 19,8 C 19,4 C 88 % 1014,2 hPa 0,0 l/m 0 min 0 min 1,6 UV-I 241 W/m 10,5 km/h (2 Bft)
11.07.2014 11:04 19,8 C 19,4 C 88 % 1014,2 hPa 0,0 l/m 0 min 0 min 1,9 UV-I 274 W/m 10,5 km/h (2 Bft)
11.07.2014 11:06 19,7 C 19,4 C 87 % 1014,2 hPa 0,0 l/m 0 min 0 min 2,2 UV-I 346 W/m 8,4 km/h (2 Bft)
11.07.2014 11:08 19,9 C 21,7 C 88 % 1014,2 hPa 0,0 l/m 2 min 0 min 3,1 UV-I 802 W/m 8,4 km/h (2 Bft)
11.07.2014 11:10 20,2 C 22,2 C 87 % 1014,2 hPa 0,0 l/m 2 min 0 min 1,9 UV-I 802 W/m 10,5 km/h (2 Bft)
11.07.2014 11:12 20,3 C 21,7 C 87 % 1014,2 hPa 0,0 l/m 0 min 0 min 1,7 UV-I 306 W/m 14,6 km/h (3 Bft)
11.07.2014 11:14 20,5 C 21,1 C 88 % 1014,2 hPa 0,0 l/m 0 min 0 min 1,8 UV-I 299 W/m 8,4 km/h (2 Bft)
11.07.2014 11:16 20,5 C 21,1 C 87 % 1014,3 hPa 0,0 l/m 0 min 0 min 2,0 UV-I 320 W/m 0,0 km/h (0 Bft)
11.07.2014 11:18 20,4 C 21,1 C 86 % 1014,3 hPa 0,0 l/m 2 min 0 min 2,4 UV-I 503 W/m 8,4 km/h (2 Bft)
11.07.2014 11:20 20,5 C 22,2 C 87 % 1014,2 hPa 0,0 l/m 2 min 0 min 2,9 UV-I 719 W/m 8,4 km/h (2 Bft)
11.07.2014 11:22 20,9 C 22,2 C 87 % 1014,2 hPa 0,0 l/m 2 min 0 min 1,8 UV-I 719 W/m 8,4 km/h (2 Bft)
11.07.2014 11:24 21,0 C 21,7 C 86 % 1014,2 hPa 0,0 l/m 0 min 0 min 1,7 UV-I 258 W/m 6,3 km/h (2 Bft)
11.07.2014 11:26 20,9 C 21,1 C 86 % 1014,1 hPa 0,0 l/m 0 min 0 min 2,0 UV-I 267 W/m 12,6 km/h (3 Bft)
11.07.2014 11:28 20,7 C 20,6 C 85 % 1014,1 hPa 0,0 l/m 0 min 0 min 3,2 UV-I 353 W/m 12,6 km/h (3 Bft)
11.07.2014 11:30 20,8 C 22,2 C 86 % 1014,1 hPa 0,0 l/m 2 min 0 min 4,1 UV-I 740 W/m 6,3 km/h (2 Bft)
11.07.2014 11:32 21,0 C 22,8 C 87 % 1014,1 hPa 0,0 l/m 2 min 0 min 4,2 UV-I 738 W/m 8,4 km/h (2 Bft)
11.07.2014 11:34 21,1 C 22,8 C 82 % 1014,1 hPa 0,0 l/m 2 min 0 min 4,4 UV-I 758 W/m 10,5 km/h (2 Bft)
11.07.2014 11:36 21,0 C 22,8 C 84 % 1014,1 hPa 0,0 l/m 2 min 0 min 4,4 UV-I 780 W/m 8,4 km/h (2 Bft)
11.07.2014 11:38 21,3 C 22,8 C 85 % 1014,1 hPa 0,0 l/m 2 min 0 min 4,4 UV-I 823 W/m 6,3 km/h (2 Bft)
11.07.2014 11:40 21,6 C 23,3 C 83 % 1014,1 hPa 0,0 l/m 2 min 0 min 4,5 UV-I 879 W/m 6,3 km/h (2 Bft)
11.07.2014 11:42 21,6 C 23,9 C 81 % 1014,0 hPa 0,0 l/m 2 min 0 min 3,9 UV-I 608 W/m 2,1 km/h (1 Bft)
11.07.2014 11:44 21,7 C 23,3 C 82 % 1014,1 hPa 0,0 l/m 2 min 0 min 2,4 UV-I 396 W/m 12,6 km/h (3 Bft)
11.07.2014 11:46 21,6 C 22,8 C 82 % 1014,1 hPa 0,0 l/m 0 min 0 min 2,0 UV-I 309 W/m 12,6 km/h (3 Bft)
11.07.2014 11:48 21,3 C 21,7 C 82 % 1014,1 hPa 0,0 l/m 0 min 0 min 1,7 UV-I 267 W/m 12,6 km/h (3 Bft)
11.07.2014 11:50 21,0 C 21,1 C 81 % 1014,1 hPa 0,0 l/m 0 min 0 min 1,8 UV-I 272 W/m 12,6 km/h (3 Bft)
11.07.2014 11:52 21,0 C 21,1 C 84 % 1014,1 hPa 0,0 l/m 0 min 0 min 2,0 UV-I 297 W/m 10,5 km/h (2 Bft)
11.07.2014 11:54 21,0 C 21,1 C 84 % 1014,0 hPa 0,0 l/m 0 min 0 min 2,5 UV-I 366 W/m 8,4 km/h (2 Bft)
11.07.2014 11:56 20,9 C 21,1 C 84 % 1014,0 hPa 0,0 l/m 0 min 0 min 2,8 UV-I 388 W/m 10,5 km/h (2 Bft)
11.07.2014 11:58 20,8 C 21,7 C 83 % 1014,0 hPa 0,0 l/m 2 min 0 min 3,0 UV-I 424 W/m 10,5 km/h (2 Bft)
11.07.2014 12:00 20,9 C 22,2 C 84 % 1014,0 hPa 0,0 l/m 2 min 0 min 2,8 UV-I 411 W/m 10,5 km/h (2 Bft)
11.07.2014 12:02 21,2 C 21,7 C 83 % 1014,0 hPa 0,0 l/m 2 min 0 min 2,8 UV-I 413 W/m 8,4 km/h (2 Bft)
11.07.2014 12:06 21,2 C 22,2 C 82 % 1014,0 hPa 0,0 l/m 2 min 0 min 2,7 UV-I 420 W/m 12,6 km/h (3 Bft)
11.07.2014 12:08 21,2 C 22,8 C 83 % 1014,0 hPa 0,0 l/m 2 min 0 min 2,4 UV-I 659 W/m 10,5 km/h (2 Bft)
11.07.2014 12:10 21,3 C 22,8 C 82 % 1014,0 hPa 0,0 l/m 0 min 0 min 2,1 UV-I 327 W/m 6,3 km/h (2 Bft)
11.07.2014 12:12 21,3 C 22,2 C 83 % 1014,0 hPa 0,0 l/m 0 min 0 min 2,0 UV-I 308 W/m 6,3 km/h (2 Bft)
11.07.2014 12:14 21,4 C 22,2 C 84 % 1014,0 hPa 0,0 l/m 0 min 0 min 2,1 UV-I 299 W/m 12,6 km/h (3 Bft)
11.07.2014 12:16 21,4 C 21,7 C 84 % 1014,0 hPa 0,0 l/m 0 min 0 min 2,2 UV-I 329 W/m 8,4 km/h (2 Bft)
11.07.2014 12:18 21,5 C 21,7 C 85 % 1014,0 hPa 0,0 l/m 0 min 0 min 2,6 UV-I 373 W/m 14,6 km/h (3 Bft)
11.07.2014 12:20 21,3 C 21,7 C 82 % 1014,1 hPa 0,0 l/m 0 min 0 min 2,6 UV-I 357 W/m 12,6 km/h (3 Bft)
11.07.2014 12:22 21,3 C 21,1 C 81 % 1014,0 hPa 0,0 l/m 0 min 0 min 2,6 UV-I 348 W/m 12,6 km/h (3 Bft)
11.07.2014 12:24 21,2 C 21,1 C 82 % 1014,0 hPa 0,0 l/m 2 min 0 min 3,2 UV-I 432 W/m 12,6 km/h (3 Bft)
11.07.2014 12:26 21,4 C 22,8 C 84 % 1014,0 hPa 0,0 l/m 2 min 0 min 4,8 UV-I 554 W/m 10,5 km/h (2 Bft)
11.07.2014 12:28 21,8 C 24,4 C 83 % 1014,0 hPa 0,0 l/m 2 min 0 min 4,7 UV-I 548 W/m 2,1 km/h (1 Bft)
11.07.2014 12:30 21,8 C 23,9 C 81 % 1013,9 hPa 0,0 l/m 0 min 0 min 2,5 UV-I 380 W/m 0,0 km/h (0 Bft)
11.07.2014 12:32 21,7 C 23,3 C 81 % 1014,0 hPa 0,0 l/m 0 min 0 min 2,2 UV-I 338 W/m 10,5 km/h (2 Bft)
11.07.2014 12:34 21,6 C 22,8 C 81 % 1014,0 hPa 0,0 l/m 0 min 0 min 2,0 UV-I 306 W/m 12,6 km/h (3 Bft)
11.07.2014 12:36 21,5 C 22,2 C 81 % 1014,0 hPa 0,0 l/m 0 min 0 min 2,0 UV-I 294 W/m 12,6 km/h (3 Bft)
11.07.2014 12:38 21,5 C 21,7 C 83 % 1014,0 hPa 0,0 l/m 0 min 0 min 2,2 UV-I 302 W/m 10,5 km/h (2 Bft)
11.07.2014 12:40 21,3 C 21,7 C 82 % 1014,0 hPa 0,0 l/m 0 min 0 min 2,3 UV-I 350 W/m 10,5 km/h (2 Bft)
11.07.2014 12:42 21,2 C 21,7 C 81 % 1014,0 hPa 0,0 l/m 0 min 0 min 2,8 UV-I 387 W/m 12,6 km/h (3 Bft)
11.07.2014 12:44 21,3 C 21,7 C 82 % 1013,9 hPa 0,0 l/m 2 min 0 min 3,2 UV-I 413 W/m 8,4 km/h (2 Bft)
11.07.2014 12:46 21,7 C 22,2 C 84 % 1013,9 hPa 0,0 l/m 2 min 0 min 3,6 UV-I 548 W/m 10,5 km/h (2 Bft)
11.07.2014 12:48 21,9 C 23,3 C 83 % 1013,9 hPa 0,0 l/m 2 min 0 min 3,7 UV-I 548 W/m 12,6 km/h (3 Bft)
11.07.2014 12:50 22,2 C 24,4 C 81 % 1013,9 hPa 0,0 l/m 2 min 0 min 3,6 UV-I 967 W/m 10,5 km/h (2 Bft)
11.07.2014 12:52 22,1 C 23,9 C 82 % 1013,9 hPa 0,0 l/m 2 min 0 min 3,1 UV-I 454 W/m 12,6 km/h (3 Bft)
11.07.2014 12:54 22,2 C 23,9 C 83 % 1013,9 hPa 0,0 l/m 2 min 0 min 2,9 UV-I 420 W/m 12,6 km/h (3 Bft)
11.07.2014 12:56 22,1 C 23,3 C 80 % 1013,9 hPa 0,0 l/m 0 min 0 min 3,0 UV-I 413 W/m 14,6 km/h (3 Bft)
11.07.2014 12:58 22,0 C 23,3 C 81 % 1013,9 hPa 0,0 l/m 2 min 0 min 3,1 UV-I 417 W/m 14,6 km/h (3 Bft)
11.07.2014 13:00 21,9 C 22,8 C 81 % 1013,9 hPa 0,0 l/m 2 min 0 min 3,1 UV-I 418 W/m 12,6 km/h (3 Bft)
11.07.2014 13:02 21,9 C 22,8 C 82 % 1013,9 hPa 0,0 l/m 2 min 0 min 4,2 UV-I 434 W/m 12,6 km/h (3 Bft)
11.07.2014 13:04 22,2 C 23,3 C 84 % 1013,8 hPa 0,0 l/m 2 min 0 min 3,7 UV-I 687 W/m 14,6 km/h (3 Bft)
11.07.2014 13:06 22,3 C 23,3 C 82 % 1013,9 hPa 0,0 l/m 2 min 0 min 3,6 UV-I 513 W/m 12,6 km/h (3 Bft)
11.07.2014 13:08 22,2 C 23,3 C 80 % 1013,9 hPa 0,0 l/m 2 min 0 min 3,7 UV-I 533 W/m 12,6 km/h (3 Bft)
11.07.2014 13:10 22,2 C 23,3 C 80 % 1013,9 hPa 0,0 l/m 2 min 0 min 4,0 UV-I 510 W/m 4,2 km/h (1 Bft)
11.07.2014 13:12 22,2 C 23,3 C 80 % 1013,9 hPa 0,0 l/m 2 min 0 min 4,2 UV-I 571 W/m 10,5 km/h (2 Bft)
11.07.2014 13:14 22,3 C 23,9 C 81 % 1013,8 hPa 0,0 l/m 2 min 0 min 5,0 UV-I 571 W/m 8,4 km/h (2 Bft)
11.07.2014 13:16 22,3 C 23,3 C 80 % 1013,8 hPa 0,0 l/m 2 min 0 min 5,2 UV-I 598 W/m 10,5 km/h (2 Bft)
11.07.2014 13:18 22,3 C 24,4 C 80 % 1013,7 hPa 0,0 l/m 2 min 0 min 5,0 UV-I 974 W/m 8,4 km/h (2 Bft)
11.07.2014 13:20 22,6 C 25,0 C 81 % 1013,7 hPa 0,0 l/m 2 min 0 min 3,7 UV-I 905 W/m 6,3 km/h (2 Bft)
11.07.2014 13:22 22,7 C 24,4 C 79 % 1013,8 hPa 0,0 l/m 2 min 0 min 3,5 UV-I 513 W/m 14,6 km/h (3 Bft)
11.07.2014 13:24 22,8 C 24,4 C 80 % 1013,8 hPa 0,0 l/m 2 min 0 min 4,2 UV-I 796 W/m 10,5 km/h (2 Bft)
11.07.2014 13:26 23,0 C 24,4 C 79 % 1013,7 hPa 0,0 l/m 2 min 0 min 4,3 UV-I 759 W/m 0,0 km/h (0 Bft)
11.07.2014 13:28 23,1 C 24,4 C 79 % 1013,7 hPa 0,0 l/m 2 min 0 min 4,4 UV-I 867 W/m 14,6 km/h (3 Bft)
11.07.2014 13:30 23,1 C 24,4 C 80 % 1013,7 hPa 0,0 l/m 2 min 0 min 3,1 UV-I 867 W/m 10,5 km/h (2 Bft)
11.07.2014 13:32 22,9 C 23,9 C 78 % 1013,7 hPa 0,0 l/m 2 min 0 min 3,4 UV-I 545 W/m 10,5 km/h (2 Bft)
11.07.2014 13:34 22,8 C 23,9 C 79 % 1013,8 hPa 0,0 l/m 2 min 0 min 3,3 UV-I 504 W/m 10,5 km/h (2 Bft)
11.07.2014 13:36 22,9 C 23,9 C 81 % 1013,7 hPa 0,0 l/m 2 min 0 min 3,1 UV-I 431 W/m 10,5 km/h (2 Bft)
11.07.2014 13:38 22,9 C 23,9 C 79 % 1013,7 hPa 0,0 l/m 2 min 0 min 3,2 UV-I 482 W/m 12,6 km/h (3 Bft)
11.07.2014 13:40 22,6 C 23,3 C 80 % 1013,7 hPa 0,0 l/m 2 min 0 min 3,3 UV-I 497 W/m 4,2 km/h (1 Bft)
11.07.2014 13:42 22,6 C 23,3 C 81 % 1013,7 hPa 0,0 l/m 0 min 0 min 2,6 UV-I 390 W/m 8,4 km/h (2 Bft)
11.07.2014 13:44 22,5 C 23,3 C 81 % 1013,7 hPa 0,0 l/m 0 min 0 min 2,3 UV-I 338 W/m 6,3 km/h (2 Bft)
11.07.2014 13:46 22,5 C 23,3 C 81 % 1013,7 hPa 0,0 l/m 0 min 0 min 2,3 UV-I 343 W/m 8,4 km/h (2 Bft)
11.07.2014 13:48 22,4 C 22,8 C 80 % 1013,6 hPa 0,0 l/m 0 min 0 min 2,4 UV-I 352 W/m 8,4 km/h (2 Bft)
11.07.2014 13:50 22,4 C 22,8 C 80 % 1013,7 hPa 0,0 l/m 0 min 0 min 2,5 UV-I 357 W/m 14,6 km/h (3 Bft)
11.07.2014 13:52 22,2 C 22,8 C 80 % 1013,7 hPa 0,0 l/m 0 min 0 min 2,6 UV-I 359 W/m 16,7 km/h (3 Bft)
11.07.2014 13:54 22,1 C 22,8 C 80 % 1013,7 hPa 0,0 l/m 0 min 0 min 2,7 UV-I 390 W/m 10,5 km/h (2 Bft)
11.07.2014 13:56 22,0 C 22,8 C 81 % 1013,6 hPa 0,0 l/m 0 min 0 min 2,8 UV-I 410 W/m 12,6 km/h (3 Bft)
11.07.2014 13:58 21,9 C 22,8 C 81 % 1013,6 hPa 0,0 l/m 0 min 0 min 2,9 UV-I 418 W/m 12,6 km/h (3 Bft)
11.07.2014 14:00 22,2 C 23,3 C 83 % 1013,6 hPa 0,0 l/m 2 min 0 min 3,1 UV-I 443 W/m 8,4 km/h (2 Bft)
11.07.2014 14:02 22,3 C 23,3 C 82 % 1013,6 hPa 0,0 l/m 2 min 0 min 3,2 UV-I 496 W/m 10,5 km/h (2 Bft)
11.07.2014 14:04 22,4 C 23,3 C 81 % 1013,6 hPa 0,0 l/m 2 min 0 min 3,1 UV-I 494 W/m 12,6 km/h (3 Bft)
11.07.2014 14:06 22,4 C 22,8 C 81 % 1013,7 hPa 0,0 l/m 0 min 0 min 2,6 UV-I 396 W/m 16,7 km/h (3 Bft)
11.07.2014 14:08 22,4 C 22,8 C 80 % 1013,7 hPa 0,0 l/m 0 min 0 min 2,5 UV-I 385 W/m 12,6 km/h (3 Bft)
11.07.2014 14:10 22,3 C 22,8 C 80 % 1013,7 hPa 0,0 l/m 0 min 0 min 2,5 UV-I 385 W/m 14,6 km/h (3 Bft)
11.07.2014 14:12 22,1 C 22,8 C 80 % 1013,7 hPa 0,0 l/m 0 min 0 min 2,3 UV-I 371 W/m 8,4 km/h (2 Bft)
11.07.2014 14:14 22,1 C 22,8 C 81 % 1013,7 hPa 0,0 l/m 0 min 0 min 2,2 UV-I 345 W/m 14,6 km/h (3 Bft)
11.07.2014 14:16 22,0 C 22,8 C 81 % 1013,7 hPa 0,0 l/m 0 min 0 min 2,3 UV-I 362 W/m 10,5 km/h (2 Bft)
11.07.2014 14:18 22,1 C 22,8 C 82 % 1013,7 hPa 0,0 l/m 0 min 0 min 2,5 UV-I 387 W/m 12,6 km/h (3 Bft)
11.07.2014 14:20 22,3 C 22,8 C 82 % 1013,7 hPa 0,0 l/m 2 min 0 min 2,7 UV-I 418 W/m 14,6 km/h (3 Bft)
11.07.2014 14:22 22,6 C 23,3 C 83 % 1013,7 hPa 0,0 l/m 0 min 0 min 2,7 UV-I 413 W/m 12,6 km/h (3 Bft)
11.07.2014 14:24 22,7 C 23,3 C 81 % 1013,8 hPa 0,0 l/m 0 min 0 min 2,5 UV-I 388 W/m 14,6 km/h (3 Bft)
11.07.2014 14:26 22,7 C 23,3 C 82 % 1013,7 hPa 0,0 l/m 0 min 0 min 2,4 UV-I 357 W/m 10,5 km/h (2 Bft)
11.07.2014 14:28 22,7 C 23,3 C 81 % 1013,7 hPa 0,0 l/m 0 min 0 min 2,3 UV-I 357 W/m 10,5 km/h (2 Bft)
11.07.2014 14:30 22,7 C 23,3 C 82 % 1013,7 hPa 0,0 l/m 0 min 0 min 2,4 UV-I 359 W/m 14,6 km/h (3 Bft)
11.07.2014 14:32 22,7 C 22,8 C 80 % 1013,6 hPa 0,0 l/m 2 min 0 min 2,7 UV-I 415 W/m 12,6 km/h (3 Bft)
11.07.2014 14:34 22,6 C 23,3 C 82 % 1013,7 hPa 0,0 l/m 2 min 0 min 3,1 UV-I 464 W/m 14,6 km/h (3 Bft)
11.07.2014 14:36 22,6 C 23,3 C 82 % 1013,6 hPa 0,0 l/m 0 min 0 min 2,8 UV-I 406 W/m 14,6 km/h (3 Bft)
11.07.2014 14:38 22,7 C 23,3 C 83 % 1013,6 hPa 0,0 l/m 0 min 0 min 2,5 UV-I 369 W/m 8,4 km/h (2 Bft)
11.07.2014 14:40 22,6 C 23,3 C 81 % 1013,6 hPa 0,0 l/m 0 min 0 min 2,7 UV-I 401 W/m 14,6 km/h (3 Bft)
11.07.2014 14:42 22,4 C 23,3 C 81 % 1013,7 hPa 0,0 l/m 2 min 0 min 3,3 UV-I 513 W/m 14,6 km/h (3 Bft)
11.07.2014 14:44 22,4 C 23,3 C 81 % 1013,6 hPa 0,0 l/m 2 min 0 min 3,3 UV-I 533 W/m 16,7 km/h (3 Bft)
11.07.2014 14:46 22,6 C 23,3 C 82 % 1013,5 hPa 0,0 l/m 2 min 0 min 2,9 UV-I 446 W/m 10,5 km/h (2 Bft)
11.07.2014 14:48 22,7 C 23,3 C 81 % 1013,6 hPa 0,0 l/m 2 min 0 min 2,7 UV-I 417 W/m 16,7 km/h (3 Bft)
11.07.2014 14:50 22,8 C 23,9 C 82 % 1013,5 hPa 0,0 l/m 2 min 0 min 2,7 UV-I 415 W/m 12,6 km/h (3 Bft)
11.07.2014 14:52 22,8 C 23,3 C 81 % 1013,5 hPa 0,0 l/m 2 min 0 min 2,6 UV-I 410 W/m 14,6 km/h (3 Bft)
11.07.2014 14:54 22,7 C 23,3 C 80 % 1013,4 hPa 0,0 l/m 0 min 0 min 2,6 UV-I 401 W/m 14,6 km/h (3 Bft)
11.07.2014 14:56 22,8 C 23,9 C 82 % 1013,4 hPa 0,0 l/m 2 min 0 min 2,6 UV-I 411 W/m 8,4 km/h (2 Bft)
11.07.2014 14:58 23,0 C 23,9 C 82 % 1013,4 hPa 0,0 l/m 2 min 0 min 2,8 UV-I 446 W/m 12,6 km/h (3 Bft)
11.07.2014 15:00 22,9 C 23,9 C 81 % 1013,4 hPa 0,0 l/m 2 min 0 min 2,7 UV-I 448 W/m 14,6 km/h (3 Bft)
11.07.2014 15:02 22,7 C 23,3 C 80 % 1013,3 hPa 0,0 l/m 0 min 0 min 2,3 UV-I 378 W/m 16,7 km/h (3 Bft)
11.07.2014 15:04 22,7 C 23,9 C 82 % 1013,4 hPa 0,0 l/m 0 min 0 min 2,0 UV-I 338 W/m 10,5 km/h (2 Bft)
11.07.2014 15:06 22,6 C 23,3 C 80 % 1013,4 hPa 0,0 l/m 0 min 0 min 1,9 UV-I 313 W/m 16,7 km/h (3 Bft)
11.07.2014 15:08 22,4 C 22,8 C 81 % 1013,5 hPa 0,0 l/m 0 min 0 min 1,8 UV-I 302 W/m 14,6 km/h (3 Bft)
11.07.2014 15:10 22,4 C 22,8 C 83 % 1013,4 hPa 0,0 l/m 0 min 0 min 1,9 UV-I 311 W/m 14,6 km/h (3 Bft)
11.07.2014 15:12 22,2 C 22,8 C 81 % 1013,4 hPa 0,0 l/m 0 min 0 min 2,0 UV-I 330 W/m 12,6 km/h (3 Bft)
11.07.2014 15:14 22,1 C 22,8 C 82 % 1013,4 hPa 0,0 l/m 0 min 0 min 2,2 UV-I 359 W/m 14,6 km/h (3 Bft)
11.07.2014 15:16 22,2 C 22,8 C 82 % 1013,4 hPa 0,0 l/m 0 min 0 min 2,1 UV-I 338 W/m 12,6 km/h (3 Bft)
11.07.2014 15:18 22,2 C 22,8 C 82 % 1013,3 hPa 0,0 l/m 0 min 0 min 2,0 UV-I 295 W/m 8,4 km/h (2 Bft)
11.07.2014 15:20 22,3 C 22,8 C 83 % 1013,3 hPa 0,0 l/m 0 min 0 min 1,9 UV-I 308 W/m 10,5 km/h (2 Bft)
11.07.2014 15:22 22,4 C 22,8 C 82 % 1013,3 hPa 0,0 l/m 0 min 0 min 2,1 UV-I 323 W/m 12,6 km/h (3 Bft)
11.07.2014 15:24 22,3 C 22,8 C 81 % 1013,3 hPa 0,0 l/m 0 min 0 min 2,1 UV-I 285 W/m 14,6 km/h (3 Bft)
11.07.2014 15:26 22,3 C 22,8 C 82 % 1013,3 hPa 0,0 l/m 0 min 0 min 1,6 UV-I 264 W/m 12,6 km/h (3 Bft)
11.07.2014 15:28 22,4 C 22,2 C 83 % 1013,4 hPa 0,0 l/m 0 min 0 min 1,4 UV-I 257 W/m 16,7 km/h (3 Bft)
11.07.2014 15:30 22,4 C 22,2 C 82 % 1013,3 hPa 0,0 l/m 0 min 0 min 1,4 UV-I 290 W/m 12,6 km/h (3 Bft)
11.07.2014 15:32 22,5 C 22,8 C 84 % 1013,3 hPa 0,0 l/m 0 min 0 min 1,9 UV-I 341 W/m 12,6 km/h (3 Bft)
11.07.2014 15:34 22,6 C 22,8 C 82 % 1013,3 hPa 0,0 l/m 2 min 0 min 2,2 UV-I 388 W/m 14,6 km/h (3 Bft)
11.07.2014 15:36 22,6 C 22,8 C 81 % 1013,3 hPa 0,0 l/m 2 min 0 min 2,2 UV-I 392 W/m 14,6 km/h (3 Bft)
11.07.2014 15:38 22,6 C 22,8 C 80 % 1013,3 hPa 0,0 l/m 2 min 0 min 2,4 UV-I 422 W/m 8,4 km/h (2 Bft)
11.07.2014 15:40 22,6 C 23,3 C 81 % 1013,3 hPa 0,0 l/m 2 min 0 min 2,9 UV-I 464 W/m 14,6 km/h (3 Bft)
11.07.2014 15:42 22,6 C 23,3 C 81 % 1013,3 hPa 0,0 l/m 0 min 0 min 2,3 UV-I 353 W/m 12,6 km/h (3 Bft)
11.07.2014 15:44 22,7 C 23,3 C 81 % 1013,3 hPa 0,0 l/m 0 min 0 min 1,8 UV-I 302 W/m 14,6 km/h (3 Bft)
11.07.2014 15:46 22,7 C 23,3 C 82 % 1013,4 hPa 0,0 l/m 0 min 0 min 1,6 UV-I 292 W/m 6,3 km/h (2 Bft)
11.07.2014 15:48 22,8 C 23,3 C 82 % 1013,3 hPa 0,0 l/m 0 min 0 min 1,5 UV-I 302 W/m 8,4 km/h (2 Bft)
11.07.2014 15:50 22,7 C 22,8 C 80 % 1013,4 hPa 0,0 l/m 0 min 0 min 1,6 UV-I 295 W/m 8,4 km/h (2 Bft)
11.07.2014 15:52 22,6 C 22,8 C 81 % 1013,3 hPa 0,0 l/m 0 min 0 min 1,6 UV-I 287 W/m 12,6 km/h (3 Bft)
11.07.2014 15:54 22,4 C 22,8 C 81 % 1013,4 hPa 0,0 l/m 0 min 0 min 1,5 UV-I 255 W/m 10,5 km/h (2 Bft)
11.07.2014 15:56 22,3 C 22,8 C 82 % 1013,4 hPa 0,0 l/m 0 min 0 min 1,4 UV-I 288 W/m 12,6 km/h (3 Bft)
11.07.2014 15:58 22,4 C 22,8 C 83 % 1013,5 hPa 0,0 l/m 0 min 0 min 1,5 UV-I 295 W/m 14,6 km/h (3 Bft)
11.07.2014 16:00 22,4 C 22,8 C 82 % 1013,5 hPa 0,0 l/m 0 min 0 min 1,5 UV-I 283 W/m 12,6 km/h (3 Bft)
11.07.2014 16:02 22,2 C 22,2 C 82 % 1013,5 hPa 0,0 l/m 0 min 0 min 1,3 UV-I 250 W/m 10,5 km/h (2 Bft)
11.07.2014 16:04 22,2 C 22,2 C 82 % 1013,5 hPa 0,0 l/m 0 min 0 min 1,2 UV-I 239 W/m 16,7 km/h (3 Bft)
11.07.2014 16:06 22,2 C 22,2 C 81 % 1013,5 hPa 0,0 l/m 0 min 0 min 1,5 UV-I 290 W/m 14,6 km/h (3 Bft)
11.07.2014 16:08 22,4 C 22,8 C 82 % 1013,4 hPa 0,0 l/m 0 min 0 min 1,6 UV-I 323 W/m 14,6 km/h (3 Bft)
11.07.2014 16:10 22,6 C 22,8 C 83 % 1013,3 hPa 0,0 l/m 0 min 0 min 1,6 UV-I 318 W/m 14,6 km/h (3 Bft)
11.07.2014 16:12 22,5 C 22,8 C 82 % 1013,3 hPa 0,0 l/m 0 min 0 min 1,7 UV-I 341 W/m 12,6 km/h (3 Bft)
11.07.2014 16:14 22,4 C 22,8 C 82 % 1013,3 hPa 0,0 l/m 2 min 0 min 2,0 UV-I 394 W/m 8,4 km/h (2 Bft)
11.07.2014 16:16 22,4 C 23,3 C 82 % 1013,3 hPa 0,0 l/m 2 min 0 min 1,9 UV-I 380 W/m 12,6 km/h (3 Bft)
11.07.2014 16:18 22,4 C 22,8 C 81 % 1013,3 hPa 0,0 l/m 0 min 0 min 1,8 UV-I 350 W/m 16,7 km/h (3 Bft)
11.07.2014 16:20 22,4 C 23,3 C 82 % 1013,3 hPa 0,0 l/m 0 min 0 min 1,6 UV-I 346 W/m 14,6 km/h (3 Bft)
11.07.2014 16:22 22,4 C 22,8 C 81 % 1013,2 hPa 0,0 l/m 0 min 0 min 1,6 UV-I 311 W/m 8,4 km/h (2 Bft)
11.07.2014 16:24 22,4 C 22,8 C 82 % 1013,2 hPa 0,0 l/m 0 min 0 min 1,4 UV-I 290 W/m 10,5 km/h (2 Bft)
11.07.2014 16:26 22,5 C 22,8 C 83 % 1013,3 hPa 0,0 l/m 0 min 0 min 1,3 UV-I 265 W/m 12,6 km/h (3 Bft)
11.07.2014 16:28 22,6 C 22,8 C 82 % 1013,2 hPa 0,0 l/m 0 min 0 min 1,1 UV-I 225 W/m 16,7 km/h (3 Bft)
11.07.2014 16:30 22,7 C 22,8 C 82 % 1013,1 hPa 0,0 l/m 0 min 0 min 1,0 UV-I 227 W/m 8,4 km/h (2 Bft)
11.07.2014 16:32 22,7 C 22,8 C 81 % 1013,2 hPa 0,0 l/m 0 min 0 min 1,0 UV-I 229 W/m 10,5 km/h (2 Bft)
11.07.2014 16:34 22,6 C 22,8 C 81 % 1013,2 hPa 0,0 l/m 0 min 0 min 1,0 UV-I 221 W/m 8,4 km/h (2 Bft)
11.07.2014 16:36 22,7 C 22,8 C 81 % 1013,2 hPa 0,0 l/m 0 min 0 min 1,0 UV-I 232 W/m 12,6 km/h (3 Bft)
11.07.2014 16:38 22,7 C 22,8 C 82 % 1013,2 hPa 0,0 l/m 0 min 0 min 1,0 UV-I 241 W/m 0,0 km/h (0 Bft)
11.07.2014 16:40 22,7 C 22,8 C 81 % 1013,3 hPa 0,0 l/m 0 min 0 min 1,0 UV-I 229 W/m 8,4 km/h (2 Bft)
11.07.2014 16:42 22,7 C 22,8 C 81 % 1013,3 hPa 0,0 l/m 0 min 0 min 0,8 UV-I 216 W/m 12,6 km/h (3 Bft)
11.07.2014 16:44 22,8 C 22,8 C 82 % 1013,3 hPa 0,0 l/m 0 min 0 min 0,9 UV-I 214 W/m 14,6 km/h (3 Bft)
11.07.2014 16:46 22,7 C 22,2 C 81 % 1013,3 hPa 0,0 l/m 0 min 0 min 0,9 UV-I 206 W/m 12,6 km/h (3 Bft)
11.07.2014 16:48 22,7 C 22,2 C 82 % 1013,2 hPa 0,0 l/m 0 min 0 min 0,8 UV-I 202 W/m 4,2 km/h (1 Bft)
11.07.2014 16:50 22,7 C 22,2 C 81 % 1013,3 hPa 0,0 l/m 0 min 0 min 0,8 UV-I 195 W/m 12,6 km/h (3 Bft)
11.07.2014 16:52 22,6 C 22,2 C 82 % 1013,3 hPa 0,0 l/m 0 min 0 min 0,7 UV-I 172 W/m 10,5 km/h (2 Bft)
11.07.2014 16:54 22,6 C 22,2 C 83 % 1013,3 hPa 0,0 l/m 0 min 0 min 0,5 UV-I 160 W/m 10,5 km/h (2 Bft)
11.07.2014 16:56 22,6 C 22,2 C 82 % 1013,3 hPa 0,0 l/m 0 min 0 min 0,0 UV-I 155 W/m 12,6 km/h (3 Bft)
11.07.2014 16:58 22,6 C 22,2 C 83 % 1013,4 hPa 0,0 l/m 0 min 0 min 0,0 UV-I 163 W/m 14,6 km/h (3 Bft)
11.07.2014 17:00 22,5 C 21,7 C 82 % 1013,3 hPa 0,0 l/m 0 min 0 min 0,6 UV-I 190 W/m 12,6 km/h (3 Bft)
11.07.2014 17:02 22,5 C 21,7 C 82 % 1013,3 hPa 0,0 l/m 0 min 0 min 0,7 UV-I 207 W/m 10,5 km/h (2 Bft)
11.07.2014 17:04 22,5 C 22,2 C 83 % 1013,3 hPa 0,0 l/m 0 min 0 min 0,8 UV-I 223 W/m 12,6 km/h (3 Bft)
11.07.2014 17:06 22,6 C 22,2 C 82 % 1013,2 hPa 0,0 l/m 0 min 0 min 0,9 UV-I 237 W/m 16,7 km/h (3 Bft)
11.07.2014 17:08 22,7 C 22,2 C 83 % 1013,1 hPa 0,0 l/m 0 min 0 min 0,8 UV-I 229 W/m 10,5 km/h (2 Bft)
11.07.2014 17:10 22,7 C 22,2 C 83 % 1013,2 hPa 0,0 l/m 0 min 0 min 0,7 UV-I 220 W/m 8,4 km/h (2 Bft)
11.07.2014 17:12 22,7 C 22,2 C 82 % 1013,2 hPa 0,0 l/m 0 min 0 min 0,6 UV-I 207 W/m 10,5 km/h (2 Bft)
11.07.2014 17:14 22,7 C 22,2 C 83 % 1013,2 hPa 0,0 l/m 0 min 0 min 0,6 UV-I 218 W/m 10,5 km/h (2 Bft)
11.07.2014 17:16 22,7 C 22,2 C 82 % 1013,2 hPa 0,0 l/m 0 min 0 min 0,6 UV-I 207 W/m 12,6 km/h (3 Bft)
11.07.2014 17:18 22,7 C 22,2 C 82 % 1013,1 hPa 0,0 l/m 0 min 0 min 0,6 UV-I 195 W/m 12,6 km/h (3 Bft)
11.07.2014 17:20 22,6 C 22,2 C 82 % 1013,1 hPa 0,0 l/m 0 min 0 min 0,6 UV-I 209 W/m 12,6 km/h (3 Bft)
11.07.2014 17:22 22,6 C 22,2 C 82 % 1013,1 hPa 0,0 l/m 0 min 0 min 0,7 UV-I 216 W/m 10,5 km/h (2 Bft)
11.07.2014 17:24 22,6 C 22,2 C 83 % 1013,1 hPa 0,0 l/m 0 min 0 min 0,6 UV-I 206 W/m 12,6 km/h (3 Bft)
11.07.2014 17:26 22,6 C 22,2 C 82 % 1013,0 hPa 0,0 l/m 0 min 0 min 0,6 UV-I 211 W/m 12,6 km/h (3 Bft)
11.07.2014 17:28 22,6 C 22,2 C 82 % 1013,1 hPa 0,0 l/m 0 min 0 min 0,6 UV-I 223 W/m 12,6 km/h (3 Bft)
11.07.2014 17:30 22,6 C 22,2 C 82 % 1013,1 hPa 0,0 l/m 0 min 0 min 0,6 UV-I 209 W/m 14,6 km/h (3 Bft)
11.07.2014 17:32 22,6 C 22,2 C 83 % 1013,1 hPa 0,0 l/m 0 min 0 min 0,6 UV-I 213 W/m 14,6 km/h (3 Bft)
11.07.2014 17:34 22,5 C 22,2 C 82 % 1013,1 hPa 0,0 l/m 0 min 0 min 0,7 UV-I 223 W/m 16,7 km/h (3 Bft)
11.07.2014 17:36 22,4 C 22,2 C 82 % 1013,1 hPa 0,0 l/m 0 min 0 min 0,6 UV-I 214 W/m 6,3 km/h (2 Bft)
11.07.2014 17:38 22,5 C 22,2 C 82 % 1013,0 hPa 0,0 l/m 0 min 0 min 0,6 UV-I 209 W/m 14,6 km/h (3 Bft)
11.07.2014 17:40 22,6 C 22,2 C 83 % 1013,0 hPa 0,0 l/m 0 min 0 min 0,6 UV-I 216 W/m 14,6 km/h (3 Bft)
11.07.2014 17:42 22,7 C 22,2 C 83 % 1013,1 hPa 0,0 l/m 0 min 0 min 0,5 UV-I 200 W/m 12,6 km/h (3 Bft)
11.07.2014 17:44 22,7 C 22,2 C 82 % 1013,0 hPa 0,0 l/m 0 min 0 min 0,0 UV-I 190 W/m 10,5 km/h (2 Bft)
11.07.2014 17:46 22,8 C 22,2 C 82 % 1013,1 hPa 0,0 l/m 0 min 0 min 0,0 UV-I 163 W/m 14,6 km/h (3 Bft)
11.07.2014 17:48 22,8 C 22,2 C 82 % 1013,1 hPa 0,0 l/m 0 min 0 min 0,0 UV-I 149 W/m 10,5 km/h (2 Bft)
11.07.2014 17:50 22,7 C 22,2 C 82 % 1013,1 hPa 0,0 l/m 0 min 0 min 0,0 UV-I 135 W/m 8,4 km/h (2 Bft)
11.07.2014 17:52 22,7 C 21,7 C 82 % 1013,2 hPa 0,0 l/m 0 min 0 min 0,0 UV-I 127 W/m 10,5 km/h (2 Bft)
11.07.2014 17:54 22,6 C 21,7 C 81 % 1013,3 hPa 0,0 l/m 0 min 0 min 0,0 UV-I 127 W/m 14,6 km/h (3 Bft)
11.07.2014 17:56 22,4 C 21,7 C 81 % 1013,3 hPa 0,0 l/m 0 min 0 min 0,0 UV-I 120 W/m 16,7 km/h (3 Bft)
11.07.2014 17:58 22,4 C 21,1 C 81 % 1013,3 hPa 0,0 l/m 0 min 0 min 0,0 UV-I 128 W/m 16,7 km/h (3 Bft)
11.07.2014 18:00 22,3 C 21,1 C 82 % 1013,3 hPa 0,0 l/m 0 min 0 min 0,0 UV-I 130 W/m 6,3 km/h (2 Bft)
11.07.2014 18:02 22,3 C 21,1 C 83 % 1013,2 hPa 0,0 l/m 0 min 0 min 0,0 UV-I 135 W/m 8,4 km/h (2 Bft)
11.07.2014 18:06 22,3 C 21,7 C 83 % 1013,1 hPa 0,0 l/m 0 min 0 min 0,0 UV-I 135 W/m 12,6 km/h (3 Bft)
11.07.2014 18:08 22,3 C 21,1 C 83 % 1013,1 hPa 0,0 l/m 0 min 0 min 0,0 UV-I 118 W/m 14,6 km/h (3 Bft)
11.07.2014 18:10 22,3 C 21,1 C 83 % 1013,2 hPa 0,0 l/m 0 min 0 min 0,0 UV-I 113 W/m 8,4 km/h (2 Bft)
11.07.2014 18:12 22,3 C 21,1 C 83 % 1013,2 hPa 0,0 l/m 0 min 0 min 0,0 UV-I 111 W/m 12,6 km/h (3 Bft)
11.07.2014 18:14 22,3 C 21,1 C 82 % 1013,2 hPa 0,0 l/m 0 min 0 min 0,0 UV-I 114 W/m 12,6 km/h (3 Bft)
11.07.2014 18:16 22,2 C 21,1 C 83 % 1013,1 hPa 0,0 l/m 0 min 0 min 0,0 UV-I 118 W/m 12,6 km/h (3 Bft)
11.07.2014 18:18 22,2 C 21,1 C 83 % 1013,1 hPa 0,0 l/m 0 min 0 min 0,0 UV-I 120 W/m 12,6 km/h (3 Bft)
11.07.2014 18:20 22,2 C 21,1 C 83 % 1013,1 hPa 0,0 l/m 0 min 0 min 0,0 UV-I 120 W/m 10,5 km/h (2 Bft)
11.07.2014 18:22 22,2 C 21,1 C 83 % 1013,1 hPa 0,0 l/m 0 min 0 min 0,0 UV-I 116 W/m 8,4 km/h (2 Bft)
11.07.2014 18:24 22,2 C 21,1 C 84 % 1013,2 hPa 0,0 l/m 0 min 0 min 0,0 UV-I 114 W/m 10,5 km/h (2 Bft)
11.07.2014 18:26 22,2 C 21,1 C 84 % 1013,2 hPa 0,0 l/m 0 min 0 min 0,0 UV-I 116 W/m 8,4 km/h (2 Bft)
11.07.2014 18:28 22,2 C 21,1 C 84 % 1013,1 hPa 0,0 l/m 0 min 0 min 0,0 UV-I 116 W/m 12,6 km/h (3 Bft)
11.07.2014 18:30 22,2 C 21,1 C 84 % 1013,1 hPa 0,0 l/m 0 min 0 min 0,0 UV-I 121 W/m 14,6 km/h (3 Bft)
11.07.2014 18:32 22,1 C 21,1 C 83 % 1013,0 hPa 0,0 l/m 0 min 0 min 0,0 UV-I 137 W/m 10,5 km/h (2 Bft)
11.07.2014 18:34 22,2 C 21,1 C 84 % 1013,0 hPa 0,0 l/m 0 min 0 min 0,0 UV-I 135 W/m 10,5 km/h (2 Bft)
11.07.2014 18:36 22,2 C 21,1 C 84 % 1013,1 hPa 0,0 l/m 0 min 0 min 0,0 UV-I 132 W/m 8,4 km/h (2 Bft)
11.07.2014 18:38 22,2 C 21,1 C 84 % 1013,1 hPa 0,0 l/m 0 min 0 min 0,0 UV-I 114 W/m 8,4 km/h (2 Bft)
11.07.2014 18:40 22,2 C 21,1 C 84 % 1013,2 hPa 0,0 l/m 0 min 0 min 0,0 UV-I 98 W/m 12,6 km/h (3 Bft)
11.07.2014 18:42 22,2 C 21,1 C 83 % 1013,3 hPa 0,0 l/m 0 min 0 min 0,0 UV-I 95 W/m 12,6 km/h (3 Bft)
11.07.2014 18:44 22,1 C 21,1 C 84 % 1013,3 hPa 0,0 l/m 0 min 0 min 0,0 UV-I 84 W/m 0,0 km/h (0 Bft)
11.07.2014 18:46 22,1 C 21,1 C 84 % 1013,3 hPa 0,0 l/m 0 min 0 min 0,0 UV-I 83 W/m 6,3 km/h (2 Bft)
11.07.2014 18:48 22,0 C 21,1 C 84 % 1013,4 hPa 0,0 l/m 0 min 0 min 0,0 UV-I 79 W/m 6,3 km/h (2 Bft)
11.07.2014 18:50 22,0 C 21,1 C 84 % 1013,5 hPa 0,0 l/m 0 min 0 min 0,0 UV-I 83 W/m 14,6 km/h (3 Bft)
11.07.2014 18:52 21,9 C 21,1 C 85 % 1013,4 hPa 0,0 l/m 0 min 0 min 0,0 UV-I 86 W/m 10,5 km/h (2 Bft)
11.07.2014 18:54 21,9 C 20,6 C 84 % 1013,5 hPa 0,0 l/m 0 min 0 min 0,0 UV-I 91 W/m 16,7 km/h (3 Bft)
11.07.2014 18:56 21,9 C 20,6 C 84 % 1013,4 hPa 0,0 l/m 0 min 0 min 0,0 UV-I 90 W/m 12,6 km/h (3 Bft)
11.07.2014 18:58 21,9 C 20,6 C 84 % 1013,4 hPa 0,0 l/m 0 min 0 min 0,0 UV-I 74 W/m 6,3 km/h (2 Bft)
11.07.2014 19:00 21,9 C 20,6 C 85 % 1013,4 hPa 0,0 l/m 0 min 0 min 0,0 UV-I 63 W/m 6,3 km/h (2 Bft)
11.07.2014 19:02 21,8 C 20,6 C 85 % 1013,4 hPa 0,0 l/m 0 min 0 min 0,0 UV-I 49 W/m 10,5 km/h (2 Bft)
11.07.2014 19:04 21,8 C 20,6 C 85 % 1013,4 hPa 0,0 l/m 0 min 0 min 0,0 UV-I 47 W/m 10,5 km/h (2 Bft)
11.07.2014 19:06 21,7 C 20,6 C 85 % 1013,4 hPa 0,0 l/m 0 min 0 min 0,0 UV-I 49 W/m 10,5 km/h (2 Bft)
11.07.2014 19:08 21,7 C 20,6 C 85 % 1013,5 hPa 0,0 l/m 0 min 0 min 0,0 UV-I 53 W/m 10,5 km/h (2 Bft)
11.07.2014 19:10 21,6 C 20,6 C 85 % 1013,4 hPa 0,0 l/m 0 min 0 min 0,0 UV-I 53 W/m 10,5 km/h (2 Bft)
11.07.2014 19:12 21,6 C 20,6 C 85 % 1013,3 hPa 0,0 l/m 0 min 0 min 0,0 UV-I 56 W/m 10,5 km/h (2 Bft)
11.07.2014 19:14 21,5 C 20,6 C 85 % 1013,3 hPa 0,0 l/m 0 min 0 min 0,0 UV-I 60 W/m 6,3 km/h (2 Bft)
11.07.2014 19:16 21,4 C 20,0 C 86 % 1013,4 hPa 0,0 l/m 0 min 0 min 0,0 UV-I 60 W/m 8,4 km/h (2 Bft)
11.07.2014 19:18 21,4 C 20,0 C 85 % 1013,4 hPa 0,0 l/m 0 min 0 min 0,0 UV-I 53 W/m 12,6 km/h (3 Bft)
11.07.2014 19:20 21,4 C 20,0 C 85 % 1013,6 hPa 0,0 l/m 0 min 0 min 0,0 UV-I 47 W/m 12,6 km/h (3 Bft)
11.07.2014 19:22 21,4 C 20,0 C 85 % 1013,6 hPa 0,0 l/m 0 min 0 min 0,0 UV-I 44 W/m 10,5 km/h (2 Bft)
11.07.2014 19:24 21,4 C 20,0 C 85 % 1013,7 hPa 0,0 l/m 0 min 0 min 0,0 UV-I 40 W/m 8,4 km/h (2 Bft)
11.07.2014 19:26 21,5 C 20,0 C 86 % 1013,7 hPa 0,0 l/m 0 min 0 min 0,0 UV-I 40 W/m 8,4 km/h (2 Bft)
11.07.2014 19:28 21,5 C 20,0 C 86 % 1013,7 hPa 0,0 l/m 0 min 0 min 0,0 UV-I 40 W/m 6,3 km/h (2 Bft)
11.07.2014 19:30 21,4 C 20,0 C 86 % 1013,8 hPa 0,0 l/m 0 min 0 min 0,0 UV-I 37 W/m 10,5 km/h (2 Bft)
11.07.2014 19:32 21,4 C 20,0 C 85 % 1013,8 hPa 0,0 l/m 0 min 0 min 0,0 UV-I 35 W/m 10,5 km/h (2 Bft)
11.07.2014 19:34 21,4 C 20,0 C 85 % 1013,8 hPa 0,0 l/m 0 min 0 min 0,0 UV-I 35 W/m 12,6 km/h (3 Bft)
11.07.2014 19:36 21,4 C 20,0 C 86 % 1013,8 hPa 0,0 l/m 0 min 0 min 0,0 UV-I 39 W/m 14,6 km/h (3 Bft)
11.07.2014 19:38 21,4 C 20,0 C 85 % 1013,7 hPa 0,0 l/m 0 min 0 min 0,0 UV-I 47 W/m 12,6 km/h (3 Bft)
11.07.2014 19:40 21,4 C 20,0 C 85 % 1013,6 hPa 0,0 l/m 0 min 0 min 0,0 UV-I 53 W/m 10,5 km/h (2 Bft)
11.07.2014 19:42 21,4 C 20,0 C 86 % 1013,6 hPa 0,0 l/m 0 min 0 min 0,0 UV-I 62 W/m 8,4 km/h (2 Bft)
11.07.2014 19:44 21,4 C 20,0 C 86 % 1013,5 hPa 0,0 l/m 0 min 0 min 0,0 UV-I 67 W/m 8,4 km/h (2 Bft)
11.07.2014 19:46 21,4 C 20,0 C 86 % 1013,4 hPa 0,0 l/m 0 min 0 min 0,0 UV-I 74 W/m 0,0 km/h (0 Bft)
11.07.2014 19:48 21,4 C 20,0 C 86 % 1013,3 hPa 0,0 l/m 0 min 0 min 0,0 UV-I 83 W/m 0,0 km/h (0 Bft)
11.07.2014 19:50 21,4 C 20,0 C 86 % 1013,3 hPa 0,0 l/m 0 min 0 min 0,0 UV-I 91 W/m 8,4 km/h (2 Bft)
11.07.2014 19:52 21,4 C 20,6 C 86 % 1013,2 hPa 0,0 l/m 0 min 0 min 0,0 UV-I 93 W/m 10,5 km/h (2 Bft)
11.07.2014 19:54 21,4 C 20,6 C 85 % 1013,2 hPa 0,0 l/m 0 min 0 min 0,0 UV-I 88 W/m 8,4 km/h (2 Bft)
11.07.2014 19:56 21,5 C 20,6 C 86 % 1013,2 hPa 0,0 l/m 0 min 0 min 0,0 UV-I 88 W/m 10,5 km/h (2 Bft)
11.07.2014 19:58 21,5 C 20,6 C 86 % 1013,1 hPa 0,0 l/m 0 min 0 min 0,0 UV-I 91 W/m 6,3 km/h (2 Bft)
11.07.2014 20:00 21,5 C 20,6 C 86 % 1013,1 hPa 0,0 l/m 0 min 0 min 0,0 UV-I 84 W/m 10,5 km/h (2 Bft)
11.07.2014 20:02 21,5 C 20,6 C 86 % 1013,1 hPa 0,0 l/m 0 min 0 min 0,0 UV-I 79 W/m 12,6 km/h (3 Bft)
11.07.2014 20:04 21,5 C 20,6 C 86 % 1013,1 hPa 0,0 l/m 0 min 0 min 0,0 UV-I 74 W/m 10,5 km/h (2 Bft)
11.07.2014 20:06 21,5 C 20,6 C 86 % 1013,1 hPa 0,0 l/m 0 min 0 min 0,0 UV-I 65 W/m 12,6 km/h (3 Bft)
11.07.2014 20:08 21,5 C 20,6 C 86 % 1013,2 hPa 0,0 l/m 0 min 0 min 0,0 UV-I 56 W/m 10,5 km/h (2 Bft)
11.07.2014 20:10 21,4 C 20,0 C 86 % 1013,2 hPa 0,0 l/m 0 min 0 min 0,0 UV-I 51 W/m 14,6 km/h (3 Bft)
11.07.2014 20:12 21,4 C 20,0 C 86 % 1013,1 hPa 0,0 l/m 0 min 0 min 0,0 UV-I 54 W/m 12,6 km/h (3 Bft)
11.07.2014 20:14 21,4 C 20,0 C 85 % 1013,1 hPa 0,0 l/m 0 min 0 min 0,0 UV-I 58 W/m 10,5 km/h (2 Bft)
11.07.2014 20:16 21,4 C 20,0 C 86 % 1013,1 hPa 0,0 l/m 0 min 0 min 0,0 UV-I 62 W/m 6,3 km/h (2 Bft)
11.07.2014 20:18 21,4 C 20,0 C 86 % 1013,1 hPa 0,0 l/m 0 min 0 min 0,0 UV-I 65 W/m 14,6 km/h (3 Bft)
11.07.2014 20:20 21,4 C 20,0 C 86 % 1013,1 hPa 0,0 l/m 0 min 0 min 0,0 UV-I 62 W/m 10,5 km/h (2 Bft)
11.07.2014 20:22 21,4 C 20,0 C 86 % 1013,1 hPa 0,0 l/m 0 min 0 min 0,0 UV-I 56 W/m 4,2 km/h (1 Bft)
11.07.2014 20:24 21,4 C 20,0 C 86 % 1013,2 hPa 0,0 l/m 0 min 0 min 0,0 UV-I 53 W/m 10,5 km/h (2 Bft)
11.07.2014 20:26 21,4 C 20,0 C 86 % 1013,2 hPa 0,0 l/m 0 min 0 min 0,0 UV-I 51 W/m 14,6 km/h (3 Bft)
11.07.2014 20:28 21,4 C 20,0 C 86 % 1013,1 hPa 0,0 l/m 0 min 0 min 0,0 UV-I 49 W/m 16,7 km/h (3 Bft)
11.07.2014 20:30 21,3 C 20,0 C 86 % 1013,2 hPa 0,0 l/m 0 min 0 min 0,0 UV-I 42 W/m 14,6 km/h (3 Bft)
11.07.2014 20:32 21,3 C 20,0 C 85 % 1013,2 hPa 0,0 l/m 0 min 0 min 0,0 UV-I 40 W/m 12,6 km/h (3 Bft)
11.07.2014 20:34 21,3 C 20,0 C 86 % 1013,3 hPa 0,0 l/m 0 min 0 min 0,0 UV-I 40 W/m 10,5 km/h (2 Bft)
11.07.2014 20:36 21,3 C 20,0 C 86 % 1013,2 hPa 0,0 l/m 0 min 0 min 0,0 UV-I 44 W/m 12,6 km/h (3 Bft)
11.07.2014 20:38 21,2 C 20,0 C 86 % 1013,2 hPa 0,0 l/m 0 min 0 min 0,0 UV-I 46 W/m 12,6 km/h (3 Bft)
11.07.2014 20:40 21,2 C 20,0 C 86 % 1013,2 hPa 0,0 l/m 0 min 0 min 0,0 UV-I 42 W/m 12,6 km/h (3 Bft)
11.07.2014 20:42 21,2 C 20,0 C 86 % 1013,3 hPa 0,0 l/m 0 min 0 min 0,0 UV-I 42 W/m 10,5 km/h (2 Bft)
11.07.2014 20:44 21,2 C 20,0 C 86 % 1013,2 hPa 0,0 l/m 0 min 0 min 0,0 UV-I 42 W/m 8,4 km/h (2 Bft)
11.07.2014 20:46 21,2 C 20,0 C 87 % 1013,2 hPa 0,0 l/m 0 min 0 min 0,0 UV-I 47 W/m 10,5 km/h (2 Bft)
11.07.2014 20:48 21,1 C 19,4 C 86 % 1013,1 hPa 0,0 l/m 0 min 0 min 0,0 UV-I 49 W/m 12,6 km/h (3 Bft)
11.07.2014 20:50 21,1 C 19,4 C 86 % 1013,1 hPa 0,0 l/m 0 min 0 min 0,0 UV-I 49 W/m 12,6 km/h (3 Bft)
11.07.2014 20:52 21,0 C 19,4 C 86 % 1013,1 hPa 0,0 l/m 0 min 0 min 0,0 UV-I 47 W/m 12,6 km/h (3 Bft)
11.07.2014 20:54 21,0 C 19,4 C 87 % 1013,1 hPa 0,0 l/m 0 min 0 min 0,0 UV-I 46 W/m 4,2 km/h (1 Bft)
11.07.2014 20:56 20,9 C 19,4 C 87 % 1013,1 hPa 0,0 l/m 0 min 0 min 0,0 UV-I 46 W/m 10,5 km/h (2 Bft)
11.07.2014 20:58 20,9 C 19,4 C 87 % 1013,0 hPa 0,0 l/m 0 min 0 min 0,0 UV-I 44 W/m 10,5 km/h (2 Bft)
11.07.2014 21:00 20,8 C 19,4 C 87 % 1013,1 hPa 0,0 l/m 0 min 0 min 0,0 UV-I 42 W/m 16,7 km/h (3 Bft)
11.07.2014 21:02 20,8 C 19,4 C 87 % 1013,2 hPa 0,0 l/m 0 min 0 min 0,0 UV-I 42 W/m 10,5 km/h (2 Bft)
11.07.2014 21:04 20,8 C 19,4 C 87 % 1013,2 hPa 0,0 l/m 0 min 0 min 0,0 UV-I 39 W/m 12,6 km/h (3 Bft)
11.07.2014 21:06 20,7 C 19,4 C 87 % 1013,3 hPa 0,0 l/m 0 min 0 min 0,0 UV-I 37 W/m 10,5 km/h (2 Bft)
11.07.2014 21:08 20,7 C 18,9 C 88 % 1013,5 hPa 0,0 l/m 0 min 0 min 0,0 UV-I 35 W/m 6,3 km/h (2 Bft)
11.07.2014 21:10 20,7 C 18,9 C 88 % 1013,5 hPa 0,0 l/m 0 min 0 min 0,0 UV-I 32 W/m 8,4 km/h (2 Bft)
11.07.2014 21:12 20,7 C 18,9 C 88 % 1013,6 hPa 0,0 l/m 0 min 0 min 0,0 UV-I 28 W/m 6,3 km/h (2 Bft)
11.07.2014 21:14 20,7 C 18,9 C 88 % 1013,5 hPa 0,0 l/m 0 min 0 min 0,0 UV-I 25 W/m 6,3 km/h (2 Bft)
11.07.2014 21:16 20,7 C 18,9 C 88 % 1013,7 hPa 0,0 l/m 0 min 0 min 0,0 UV-I 21 W/m 6,3 km/h (2 Bft)
11.07.2014 21:18 20,7 C 18,9 C 88 % 1013,7 hPa 0,0 l/m 0 min 0 min 0,0 UV-I 18 W/m 6,3 km/h (2 Bft)
11.07.2014 21:20 20,7 C 18,9 C 88 % 1013,8 hPa 0,0 l/m 0 min 0 min 0,0 UV-I 16 W/m 0,0 km/h (0 Bft)
11.07.2014 21:22 20,6 C 18,9 C 88 % 1013,9 hPa 0,0 l/m 0 min 0 min 0,0 UV-I 14 W/m 8,4 km/h (2 Bft)
11.07.2014 21:24 20,6 C 18,9 C 88 % 1013,9 hPa 0,0 l/m 0 min 0 min 0,0 UV-I 12 W/m 0,0 km/h (0 Bft)
11.07.2014 21:26 20,7 C 18,9 C 88 % 1013,9 hPa 0,0 l/m 0 min 0 min 0,0 UV-I 12 W/m 0,0 km/h (0 Bft)
11.07.2014 21:28 20,7 C 18,9 C 88 % 1013,9 hPa 0,0 l/m 0 min 0 min 0,0 UV-I 12 W/m 0,0 km/h (0 Bft)
11.07.2014 21:30 20,6 C 18,9 C 89 % 1013,8 hPa 0,0 l/m 2 min 0 min 0,0 UV-I 14 W/m 2,1 km/h (1 Bft)
11.07.2014 21:32 20,6 C 18,9 C 89 % 1013,9 hPa 0,0 l/m 2 min 0 min 0,0 UV-I 16 W/m 2,1 km/h (1 Bft)
11.07.2014 21:34 20,6 C 18,9 C 88 % 1013,8 hPa 0,0 l/m 2 min 0 min 0,0 UV-I 14 W/m 6,3 km/h (2 Bft)
11.07.2014 21:36 20,6 C 18,9 C 88 % 1013,9 hPa 0,0 l/m 0 min 0 min 0,0 UV-I 11 W/m 6,3 km/h (2 Bft)
11.07.2014 21:38 20,6 C 18,9 C 89 % 1013,9 hPa 0,0 l/m 0 min 0 min 0,0 UV-I 7 W/m 4,2 km/h (1 Bft)
11.07.2014 21:40 20,6 C 18,9 C 89 % 1013,9 hPa 0,0 l/m 0 min 0 min 0,0 UV-I 7 W/m 8,4 km/h (2 Bft)
11.07.2014 21:42 20,6 C 18,9 C 89 % 1013,9 hPa 0,0 l/m 0 min 0 min 0,0 UV-I 7 W/m 10,5 km/h (2 Bft)
11.07.2014 21:44 20,5 C 18,9 C 89 % 1013,9 hPa 0,0 l/m 0 min 0 min 0,0 UV-I 5 W/m 6,3 km/h (2 Bft)
11.07.2014 21:46 20,5 C 18,9 C 89 % 1013,9 hPa 0,0 l/m 0 min 0 min 0,0 UV-I 0 W/m 8,4 km/h (2 Bft)
11.07.2014 21:48 20,5 C 18,9 C 89 % 1013,9 hPa 0,0 l/m 0 min 0 min 0,0 UV-I 0 W/m 6,3 km/h (2 Bft)
11.07.2014 21:50 20,4 C 18,9 C 89 % 1013,9 hPa 0,0 l/m 0 min 0 min 0,0 UV-I 0 W/m 10,5 km/h (2 Bft)
11.07.2014 21:52 20,4 C 18,9 C 89 % 1013,8 hPa 0,0 l/m 0 min 0 min 0,0 UV-I 0 W/m 6,3 km/h (2 Bft)
11.07.2014 21:54 20,4 C 18,9 C 89 % 1013,9 hPa 0,0 l/m 0 min 0 min 0,0 UV-I 0 W/m 10,5 km/h (2 Bft)
11.07.2014 21:56 20,4 C 18,9 C 89 % 1013,7 hPa 0,0 l/m 0 min 0 min 0,0 UV-I 0 W/m 6,3 km/h (2 Bft)
11.07.2014 21:58 20,3 C 18,9 C 89 % 1013,8 hPa 0,0 l/m 0 min 0 min 0,0 UV-I 0 W/m 10,5 km/h (2 Bft)
11.07.2014 22:00 20,3 C 18,3 C 89 % 1013,8 hPa 0,0 l/m 0 min 0 min 0,0 UV-I 0 W/m 2,1 km/h (1 Bft)
11.07.2014 22:02 20,3 C 18,3 C 89 % 1013,8 hPa 0,0 l/m 0 min 0 min 0,0 UV-I 0 W/m 2,1 km/h (1 Bft)
11.07.2014 22:04 20,2 C 18,3 C 90 % 1013,9 hPa 0,0 l/m 0 min 0 min 0,0 UV-I 0 W/m 8,4 km/h (2 Bft)
11.07.2014 22:06 20,2 C 18,3 C 90 % 1013,8 hPa 0,0 l/m 0 min 0 min 0,0 UV-I 0 W/m 8,4 km/h (2 Bft)
11.07.2014 22:08 20,2 C 18,3 C 90 % 1013,9 hPa 0,0 l/m 0 min 0 min 0,0 UV-I 0 W/m 8,4 km/h (2 Bft)
11.07.2014 22:10 20,1 C 18,3 C 90 % 1013,9 hPa 0,0 l/m 0 min 0 min 0,0 UV-I 0 W/m 8,4 km/h (2 Bft)
11.07.2014 22:12 20,1 C 18,3 C 90 % 1013,9 hPa 0,0 l/m 0 min 0 min 0,0 UV-I 0 W/m 6,3 km/h (2 Bft)
11.07.2014 22:14 20,1 C 18,3 C 90 % 1013,9 hPa 0,0 l/m 0 min 0 min 0,0 UV-I 0 W/m 0,0 km/h (0 Bft)
11.07.2014 22:16 20,0 C 18,3 C 90 % 1013,9 hPa 0,0 l/m 0 min 0 min 0,0 UV-I 0 W/m 0,0 km/h (0 Bft)
11.07.2014 22:18 20,0 C 18,3 C 90 % 1013,9 hPa 0,0 l/m 0 min 0 min 0,0 UV-I 0 W/m 0,0 km/h (0 Bft)
11.07.2014 22:20 20,0 C 18,3 C 90 % 1013,9 hPa 0,0 l/m 0 min 0 min 0,0 UV-I 0 W/m 4,2 km/h (1 Bft)
11.07.2014 22:22 20,0 C 18,3 C 91 % 1014,0 hPa 0,0 l/m 0 min 0 min 0,0 UV-I 0 W/m 8,4 km/h (2 Bft)
11.07.2014 22:24 20,0 C 18,3 C 91 % 1014,0 hPa 0,0 l/m 0 min 0 min 0,0 UV-I 0 W/m 10,5 km/h (2 Bft)
11.07.2014 22:26 20,0 C 18,3 C 91 % 1014,0 hPa 0,0 l/m 0 min 0 min 0,0 UV-I 0 W/m 8,4 km/h (2 Bft)
11.07.2014 22:28 20,0 C 18,3 C 91 % 1014,0 hPa 0,0 l/m 0 min 0 min 0,0 UV-I 0 W/m 10,5 km/h (2 Bft)
11.07.2014 22:30 19,9 C 18,3 C 91 % 1014,1 hPa 0,0 l/m 0 min 0 min 0,0 UV-I 0 W/m 10,5 km/h (2 Bft)
11.07.2014 22:32 19,9 C 18,3 C 90 % 1014,1 hPa 0,0 l/m 0 min 0 min 0,0 UV-I 0 W/m 12,6 km/h (3 Bft)
11.07.2014 22:34 19,9 C 18,3 C 90 % 1014,1 hPa 0,0 l/m 0 min 0 min 0,0 UV-I 0 W/m 8,4 km/h (2 Bft)
11.07.2014 22:36 19,9 C 18,3 C 90 % 1013,9 hPa 0,0 l/m 0 min 0 min 0,0 UV-I 0 W/m 10,5 km/h (2 Bft)
11.07.2014 22:38 19,9 C 18,3 C 90 % 1013,9 hPa 0,0 l/m 0 min 0 min 0,0 UV-I 0 W/m 8,4 km/h (2 Bft)
11.07.2014 22:40 19,9 C 18,3 C 90 % 1013,9 hPa 0,0 l/m 0 min 0 min 0,0 UV-I 0 W/m 8,4 km/h (2 Bft)
11.07.2014 22:42 19,9 C 18,3 C 91 % 1014,0 hPa 0,0 l/m 0 min 0 min 0,0 UV-I 0 W/m 8,4 km/h (2 Bft)
11.07.2014 22:44 19,9 C 18,3 C 91 % 1014,0 hPa 0,0 l/m 0 min 0 min 0,0 UV-I 0 W/m 2,1 km/h (1 Bft)
11.07.2014 22:46 19,8 C 18,3 C 91 % 1013,9 hPa 0,0 l/m 0 min 0 min 0,0 UV-I 0 W/m 6,3 km/h (2 Bft)
11.07.2014 22:48 19,8 C 18,3 C 91 % 1013,9 hPa 0,0 l/m 0 min 0 min 0,0 UV-I 0 W/m 10,5 km/h (2 Bft)
11.07.2014 22:50 19,8 C 18,3 C 91 % 1013,8 hPa 0,0 l/m 0 min 0 min 0,0 UV-I 0 W/m 10,5 km/h (2 Bft)
11.07.2014 22:52 19,8 C 18,3 C 91 % 1013,9 hPa 0,0 l/m 0 min 0 min 0,0 UV-I 0 W/m 8,4 km/h (2 Bft)
11.07.2014 22:54 19,7 C 18,3 C 91 % 1013,9 hPa 0,0 l/m 0 min 0 min 0,0 UV-I 0 W/m 12,6 km/h (3 Bft)
11.07.2014 22:56 19,7 C 18,3 C 91 % 1013,8 hPa 0,0 l/m 0 min 0 min 0,0 UV-I 0 W/m 10,5 km/h (2 Bft)
11.07.2014 22:58 19,7 C 18,3 C 91 % 1013,7 hPa 0,0 l/m 0 min 0 min 0,0 UV-I 0 W/m 12,6 km/h (3 Bft)
11.07.2014 23:00 19,6 C 18,3 C 92 % 1013,8 hPa 0,0 l/m 0 min 0 min 0,0 UV-I 0 W/m 10,5 km/h (2 Bft)
11.07.2014 23:02 19,6 C 17,8 C 92 % 1013,8 hPa 0,0 l/m 0 min 0 min 0,0 UV-I 0 W/m 10,5 km/h (2 Bft)
11.07.2014 23:04 19,6 C 17,8 C 92 % 1013,8 hPa 0,0 l/m 0 min 0 min 0,0 UV-I 0 W/m 12,6 km/h (3 Bft)
11.07.2014 23:06 19,5 C 17,8 C 92 % 1013,8 hPa 0,0 l/m 0 min 0 min 0,0 UV-I 0 W/m 20,9 km/h (4 Bft)
11.07.2014 23:08 19,5 C 17,8 C 92 % 1013,9 hPa 0,0 l/m 0 min 0 min 0,0 UV-I 0 W/m 10,5 km/h (2 Bft)
11.07.2014 23:10 19,5 C 17,8 C 92 % 1013,9 hPa 0,0 l/m 0 min 0 min 0,0 UV-I 0 W/m 12,6 km/h (3 Bft)
11.07.2014 23:12 19,4 C 17,8 C 92 % 1013,9 hPa 0,0 l/m 0 min 0 min 0,0 UV-I 0 W/m 12,6 km/h (3 Bft)
11.07.2014 23:14 19,4 C 17,8 C 92 % 1013,9 hPa 0,0 l/m 0 min 0 min 0,0 UV-I 0 W/m 16,7 km/h (3 Bft)
11.07.2014 23:16 19,4 C 17,8 C 92 % 1013,9 hPa 0,0 l/m 0 min 0 min 0,0 UV-I 0 W/m 10,5 km/h (2 Bft)
11.07.2014 23:18 19,4 C 17,8 C 92 % 1013,9 hPa 0,0 l/m 0 min 0 min 0,0 UV-I 0 W/m 8,4 km/h (2 Bft)
11.07.2014 23:20 19,4 C 17,8 C 92 % 1013,9 hPa 0,0 l/m 0 min 0 min 0,0 UV-I 0 W/m 12,6 km/h (3 Bft)
11.07.2014 23:22 19,4 C 17,8 C 92 % 1013,9 hPa 0,0 l/m 0 min 0 min 0,0 UV-I 0 W/m 16,7 km/h (3 Bft)
11.07.2014 23:24 19,3 C 17,8 C 92 % 1013,8 hPa 0,0 l/m 0 min 0 min 0,0 UV-I 0 W/m 16,7 km/h (3 Bft)
11.07.2014 23:26 19,3 C 17,8 C 92 % 1013,9 hPa 0,0 l/m 0 min 0 min 0,0 UV-I 0 W/m 14,6 km/h (3 Bft)
11.07.2014 23:28 19,3 C 17,8 C 92 % 1013,9 hPa 0,0 l/m 0 min 0 min 0,0 UV-I 0 W/m 16,7 km/h (3 Bft)
11.07.2014 23:30 19,2 C 17,8 C 92 % 1013,9 hPa 0,0 l/m 0 min 0 min 0,0 UV-I 0 W/m 8,4 km/h (2 Bft)
11.07.2014 23:32 19,2 C 17,8 C 92 % 1013,9 hPa 0,0 l/m 0 min 0 min 0,0 UV-I 0 W/m 12,6 km/h (3 Bft)
11.07.2014 23:34 19,2 C 17,8 C 92 % 1013,9 hPa 0,0 l/m 0 min 0 min 0,0 UV-I 0 W/m 18,8 km/h (3 Bft)
11.07.2014 23:36 19,2 C 17,8 C 92 % 1013,9 hPa 0,0 l/m 0 min 0 min 0,0 UV-I 0 W/m 12,6 km/h (3 Bft)
11.07.2014 23:38 19,2 C 17,8 C 92 % 1013,9 hPa 0,0 l/m 0 min 0 min 0,0 UV-I 0 W/m 10,5 km/h (2 Bft)
11.07.2014 23:40 19,2 C 17,8 C 92 % 1013,9 hPa 0,0 l/m 0 min 0 min 0,0 UV-I 0 W/m 12,6 km/h (3 Bft)
11.07.2014 23:42 19,2 C 17,8 C 92 % 1013,9 hPa 0,0 l/m 0 min 0 min 0,0 UV-I 0 W/m 14,6 km/h (3 Bft)
11.07.2014 23:44 19,2 C 17,8 C 92 % 1013,9 hPa 0,0 l/m 0 min 0 min 0,0 UV-I 0 W/m 12,6 km/h (3 Bft)
11.07.2014 23:46 19,2 C 17,8 C 92 % 1013,9 hPa 0,0 l/m 0 min 0 min 0,0 UV-I 0 W/m 14,6 km/h (3 Bft)
11.07.2014 23:48 19,2 C 17,8 C 92 % 1013,9 hPa 0,0 l/m 0 min 0 min 0,0 UV-I 0 W/m 10,5 km/h (2 Bft)
11.07.2014 23:50 19,1 C 17,8 C 92 % 1013,9 hPa 0,0 l/m 0 min 0 min 0,0 UV-I 0 W/m 14,6 km/h (3 Bft)
11.07.2014 23:52 19,1 C 17,8 C 91 % 1013,9 hPa 0,0 l/m 0 min 0 min 0,0 UV-I 0 W/m 14,6 km/h (3 Bft)
11.07.2014 23:54 19,0 C 17,8 C 91 % 1013,8 hPa 0,0 l/m 0 min 0 min 0,0 UV-I 0 W/m 10,5 km/h (2 Bft)
11.07.2014 23:56 18,9 C 17,2 C 91 % 1013,8 hPa 0,0 l/m 0 min 0 min 0,0 UV-I 0 W/m 12,6 km/h (3 Bft)
11.07.2014 23:58 18,9 C 17,2 C 92 % 1013,9 hPa 0,0 l/m 0 min 0 min 0,0 UV-I 0 W/m 8,4 km/h (2 Bft)
_ Min-Zeit 05:02 04:46 13:32 03:08 - - - - - 00:06
Minimum _ 16,4 C 15,0 C 78 % 1012,0 hPa - - - - - 0,0 km/h (0 Bft)
_ Max-Zeit 13:28 13:20 01:34 10:52 00:00 06:50 00:00 13:16 13:18 01:58
Maximum _ 23,1 C 25,0 C 99 % 1014,3 hPa 0,2 l/m 2 min 2 min 5,2 UV-I 974 W/m 23,0 km/h
W (4 Bft)
Durchschnitt _ 19,6 C 19,0 C 90 % 1013,3 hPa #0,2 l/m #3:26 h #26 min. 2,1 UV-I 224 W/m 9,4 km/h (2 Bft)
© 2014 W. Hausmann